<?xml version="1.0" encoding="UTF-8" standalone="no" ?>
<gpx xmlns="http://www.topografix.com/GPX/1/1" xmlns:xsi="http://www.w3.org/2001/XMLSchema-instance" xsi:schemaLocation="http://www.topografix.com/GPX/1/1 http://www.topografix.com/GPX/1/1/gpx.xsd" version="1.1" creator="VisuGPX - https://www.visugpx.com">
  <metadata>
    <name>Milhaud</name>
    <desc><![CDATA[Chemin botanique et Capitelles]]></desc>
  </metadata>
  <trk>
    <name><![CDATA[     MILLAUD  28:29]]></name>
    <trkseg>
      <trkpt lat="43.79252" lon="4.30545">
        <ele>39.07</ele>
        <time>2014-11-24T12:40:31Z</time>
      </trkpt>
      <trkpt lat="43.79249" lon="4.30546">
        <ele>40.51</ele>
        <time>2014-11-24T12:40:51Z</time>
      </trkpt>
      <trkpt lat="43.79251" lon="4.30546">
        <ele>36.19</ele>
        <time>2014-11-24T12:41:09Z</time>
      </trkpt>
      <trkpt lat="43.79253" lon="4.3055">
        <ele>35.71</ele>
        <time>2014-11-24T12:41:28Z</time>
      </trkpt>
      <trkpt lat="43.79254" lon="4.30551">
        <ele>34.26</ele>
        <time>2014-11-24T12:41:49Z</time>
      </trkpt>
      <trkpt lat="43.7926" lon="4.30551">
        <ele>33.3</ele>
        <time>2014-11-24T12:42:07Z</time>
      </trkpt>
      <trkpt lat="43.79261" lon="4.30552">
        <ele>35.23</ele>
        <time>2014-11-24T12:42:30Z</time>
      </trkpt>
      <trkpt lat="43.79262" lon="4.30549">
        <ele>33.3</ele>
        <time>2014-11-24T12:42:51Z</time>
      </trkpt>
      <trkpt lat="43.79262" lon="4.30548">
        <ele>32.34</ele>
        <time>2014-11-24T12:43:13Z</time>
      </trkpt>
      <trkpt lat="43.79264" lon="4.30553">
        <ele>32.34</ele>
        <time>2014-11-24T12:43:30Z</time>
      </trkpt>
      <trkpt lat="43.79265" lon="4.30558">
        <ele>33.78</ele>
        <time>2014-11-24T12:43:50Z</time>
      </trkpt>
      <trkpt lat="43.79265" lon="4.3056">
        <ele>33.78</ele>
        <time>2014-11-24T12:44:09Z</time>
      </trkpt>
      <trkpt lat="43.79262" lon="4.3056">
        <ele>32.34</ele>
        <time>2014-11-24T12:44:27Z</time>
      </trkpt>
      <trkpt lat="43.79263" lon="4.30558">
        <ele>29.46</ele>
        <time>2014-11-24T12:44:49Z</time>
      </trkpt>
      <trkpt lat="43.79264" lon="4.30556">
        <ele>30.42</ele>
        <time>2014-11-24T12:45:15Z</time>
      </trkpt>
      <trkpt lat="43.79265" lon="4.30557">
        <ele>30.42</ele>
        <time>2014-11-24T12:45:41Z</time>
      </trkpt>
      <trkpt lat="43.79263" lon="4.30557">
        <ele>28.98</ele>
        <time>2014-11-24T12:46:07Z</time>
      </trkpt>
      <trkpt lat="43.79264" lon="4.30555">
        <ele>31.86</ele>
        <time>2014-11-24T12:46:32Z</time>
      </trkpt>
      <trkpt lat="43.79265" lon="4.30555">
        <ele>34.26</ele>
        <time>2014-11-24T12:47:02Z</time>
      </trkpt>
      <trkpt lat="43.79266" lon="4.30555">
        <ele>36.67</ele>
        <time>2014-11-24T12:47:27Z</time>
      </trkpt>
      <trkpt lat="43.79265" lon="4.30558">
        <ele>40.03</ele>
        <time>2014-11-24T12:47:54Z</time>
      </trkpt>
      <trkpt lat="43.79264" lon="4.30561">
        <ele>44.36</ele>
        <time>2014-11-24T12:48:18Z</time>
      </trkpt>
      <trkpt lat="43.79263" lon="4.30559">
        <ele>45.32</ele>
        <time>2014-11-24T12:48:37Z</time>
      </trkpt>
      <trkpt lat="43.7926" lon="4.30558">
        <ele>44.36</ele>
        <time>2014-11-24T12:49:01Z</time>
      </trkpt>
      <trkpt lat="43.79261" lon="4.30558">
        <ele>44.84</ele>
        <time>2014-11-24T12:49:24Z</time>
      </trkpt>
      <trkpt lat="43.79261" lon="4.30558">
        <ele>44.84</ele>
        <time>2014-11-24T12:49:43Z</time>
      </trkpt>
      <trkpt lat="43.79262" lon="4.30559">
        <ele>43.88</ele>
        <time>2014-11-24T12:50:09Z</time>
      </trkpt>
      <trkpt lat="43.79263" lon="4.30559">
        <ele>45.32</ele>
        <time>2014-11-24T12:50:32Z</time>
      </trkpt>
      <trkpt lat="43.79262" lon="4.30562">
        <ele>41.95</ele>
        <time>2014-11-24T12:50:57Z</time>
      </trkpt>
      <trkpt lat="43.79249" lon="4.30548">
        <ele>38.11</ele>
        <time>2014-11-24T12:51:14Z</time>
      </trkpt>
      <trkpt lat="43.79248" lon="4.30531">
        <ele>37.15</ele>
        <time>2014-11-24T12:51:28Z</time>
      </trkpt>
      <trkpt lat="43.79256" lon="4.30521">
        <ele>35.23</ele>
        <time>2014-11-24T12:51:42Z</time>
      </trkpt>
      <trkpt lat="43.79261" lon="4.30518">
        <ele>34.26</ele>
        <time>2014-11-24T12:51:56Z</time>
      </trkpt>
      <trkpt lat="43.7927" lon="4.30511">
        <ele>33.3</ele>
        <time>2014-11-24T12:52:08Z</time>
      </trkpt>
      <trkpt lat="43.79281" lon="4.30502">
        <ele>34.26</ele>
        <time>2014-11-24T12:52:20Z</time>
      </trkpt>
      <trkpt lat="43.79297" lon="4.30488">
        <ele>31.86</ele>
        <time>2014-11-24T12:52:36Z</time>
      </trkpt>
      <trkpt lat="43.7931" lon="4.30477">
        <ele>31.86</ele>
        <time>2014-11-24T12:52:50Z</time>
      </trkpt>
      <trkpt lat="43.79322" lon="4.3046">
        <ele>33.78</ele>
        <time>2014-11-24T12:53:03Z</time>
      </trkpt>
      <trkpt lat="43.79325" lon="4.30458">
        <ele>34.26</ele>
        <time>2014-11-24T12:53:06Z</time>
      </trkpt>
      <trkpt lat="43.79343" lon="4.30441">
        <ele>34.26</ele>
        <time>2014-11-24T12:53:24Z</time>
      </trkpt>
      <trkpt lat="43.7936" lon="4.30417">
        <ele>32.82</ele>
        <time>2014-11-24T12:53:45Z</time>
      </trkpt>
      <trkpt lat="43.79364" lon="4.30411">
        <ele>33.3</ele>
        <time>2014-11-24T12:53:47Z</time>
      </trkpt>
      <trkpt lat="43.7937" lon="4.30406">
        <ele>38.11</ele>
        <time>2014-11-24T12:53:52Z</time>
      </trkpt>
      <trkpt lat="43.79384" lon="4.30407">
        <ele>38.59</ele>
        <time>2014-11-24T12:54:10Z</time>
      </trkpt>
      <trkpt lat="43.79384" lon="4.3041">
        <ele>40.51</ele>
        <time>2014-11-24T12:54:27Z</time>
      </trkpt>
      <trkpt lat="43.79388" lon="4.30406">
        <ele>40.99</ele>
        <time>2014-11-24T12:54:50Z</time>
      </trkpt>
      <trkpt lat="43.79402" lon="4.30397">
        <ele>38.59</ele>
        <time>2014-11-24T12:55:05Z</time>
      </trkpt>
      <trkpt lat="43.79415" lon="4.30383">
        <ele>37.63</ele>
        <time>2014-11-24T12:55:20Z</time>
      </trkpt>
      <trkpt lat="43.79421" lon="4.30378">
        <ele>37.63</ele>
        <time>2014-11-24T12:55:27Z</time>
      </trkpt>
      <trkpt lat="43.79429" lon="4.30366">
        <ele>36.67</ele>
        <time>2014-11-24T12:55:37Z</time>
      </trkpt>
      <trkpt lat="43.79434" lon="4.30356">
        <ele>38.59</ele>
        <time>2014-11-24T12:55:45Z</time>
      </trkpt>
      <trkpt lat="43.79437" lon="4.3035">
        <ele>39.55</ele>
        <time>2014-11-24T12:55:50Z</time>
      </trkpt>
      <trkpt lat="43.79439" lon="4.30347">
        <ele>39.55</ele>
        <time>2014-11-24T12:55:52Z</time>
      </trkpt>
      <trkpt lat="43.79441" lon="4.30342">
        <ele>39.55</ele>
        <time>2014-11-24T12:55:56Z</time>
      </trkpt>
      <trkpt lat="43.79447" lon="4.30328">
        <ele>38.59</ele>
        <time>2014-11-24T12:56:07Z</time>
      </trkpt>
      <trkpt lat="43.79454" lon="4.30308">
        <ele>40.99</ele>
        <time>2014-11-24T12:56:21Z</time>
      </trkpt>
      <trkpt lat="43.79459" lon="4.30295">
        <ele>42.44</ele>
        <time>2014-11-24T12:56:30Z</time>
      </trkpt>
      <trkpt lat="43.79461" lon="4.30289">
        <ele>41.95</ele>
        <time>2014-11-24T12:56:35Z</time>
      </trkpt>
      <trkpt lat="43.79465" lon="4.3028">
        <ele>39.55</ele>
        <time>2014-11-24T12:56:42Z</time>
      </trkpt>
      <trkpt lat="43.79476" lon="4.30265">
        <ele>37.15</ele>
        <time>2014-11-24T12:56:57Z</time>
      </trkpt>
      <trkpt lat="43.7949" lon="4.3025">
        <ele>39.07</ele>
        <time>2014-11-24T12:57:11Z</time>
      </trkpt>
      <trkpt lat="43.79503" lon="4.30237">
        <ele>41.95</ele>
        <time>2014-11-24T12:57:25Z</time>
      </trkpt>
      <trkpt lat="43.79505" lon="4.30233">
        <ele>42.44</ele>
        <time>2014-11-24T12:57:28Z</time>
      </trkpt>
      <trkpt lat="43.79517" lon="4.30217">
        <ele>43.88</ele>
        <time>2014-11-24T12:57:42Z</time>
      </trkpt>
      <trkpt lat="43.79519" lon="4.30215">
        <ele>43.88</ele>
        <time>2014-11-24T12:57:44Z</time>
      </trkpt>
      <trkpt lat="43.79527" lon="4.30204">
        <ele>45.32</ele>
        <time>2014-11-24T12:57:54Z</time>
      </trkpt>
      <trkpt lat="43.7954" lon="4.30188">
        <ele>45.32</ele>
        <time>2014-11-24T12:58:10Z</time>
      </trkpt>
      <trkpt lat="43.79551" lon="4.30171">
        <ele>44.36</ele>
        <time>2014-11-24T12:58:25Z</time>
      </trkpt>
      <trkpt lat="43.7956" lon="4.30158">
        <ele>44.84</ele>
        <time>2014-11-24T12:58:36Z</time>
      </trkpt>
      <trkpt lat="43.79575" lon="4.30137">
        <ele>46.28</ele>
        <time>2014-11-24T12:58:54Z</time>
      </trkpt>
      <trkpt lat="43.79584" lon="4.30121">
        <ele>47.72</ele>
        <time>2014-11-24T12:59:09Z</time>
      </trkpt>
      <trkpt lat="43.79593" lon="4.30105">
        <ele>48.2</ele>
        <time>2014-11-24T12:59:24Z</time>
      </trkpt>
      <trkpt lat="43.79602" lon="4.30087">
        <ele>46.76</ele>
        <time>2014-11-24T12:59:39Z</time>
      </trkpt>
      <trkpt lat="43.79603" lon="4.30084">
        <ele>46.76</ele>
        <time>2014-11-24T12:59:42Z</time>
      </trkpt>
      <trkpt lat="43.79605" lon="4.30082">
        <ele>46.28</ele>
        <time>2014-11-24T12:59:44Z</time>
      </trkpt>
      <trkpt lat="43.79618" lon="4.30065">
        <ele>47.72</ele>
        <time>2014-11-24T13:00:00Z</time>
      </trkpt>
      <trkpt lat="43.79633" lon="4.30062">
        <ele>49.65</ele>
        <time>2014-11-24T13:00:14Z</time>
      </trkpt>
      <trkpt lat="43.79646" lon="4.30061">
        <ele>49.65</ele>
        <time>2014-11-24T13:00:27Z</time>
      </trkpt>
      <trkpt lat="43.79662" lon="4.30056">
        <ele>49.65</ele>
        <time>2014-11-24T13:00:42Z</time>
      </trkpt>
      <trkpt lat="43.79678" lon="4.30048">
        <ele>50.13</ele>
        <time>2014-11-24T13:00:58Z</time>
      </trkpt>
      <trkpt lat="43.79694" lon="4.30037">
        <ele>52.05</ele>
        <time>2014-11-24T13:01:14Z</time>
      </trkpt>
      <trkpt lat="43.7971" lon="4.30029">
        <ele>51.57</ele>
        <time>2014-11-24T13:01:29Z</time>
      </trkpt>
      <trkpt lat="43.79728" lon="4.30019">
        <ele>51.09</ele>
        <time>2014-11-24T13:01:46Z</time>
      </trkpt>
      <trkpt lat="43.79739" lon="4.30012">
        <ele>51.09</ele>
        <time>2014-11-24T13:01:57Z</time>
      </trkpt>
      <trkpt lat="43.79757" lon="4.30001">
        <ele>45.8</ele>
        <time>2014-11-24T13:02:15Z</time>
      </trkpt>
      <trkpt lat="43.7977" lon="4.29991">
        <ele>43.88</ele>
        <time>2014-11-24T13:02:28Z</time>
      </trkpt>
      <trkpt lat="43.79771" lon="4.2999">
        <ele>43.88</ele>
        <time>2014-11-24T13:02:29Z</time>
      </trkpt>
      <trkpt lat="43.79786" lon="4.29978">
        <ele>47.24</ele>
        <time>2014-11-24T13:02:43Z</time>
      </trkpt>
      <trkpt lat="43.79795" lon="4.29971">
        <ele>49.16</ele>
        <time>2014-11-24T13:02:52Z</time>
      </trkpt>
      <trkpt lat="43.79809" lon="4.2996">
        <ele>49.16</ele>
        <time>2014-11-24T13:03:07Z</time>
      </trkpt>
      <trkpt lat="43.79821" lon="4.2995">
        <ele>49.16</ele>
        <time>2014-11-24T13:03:19Z</time>
      </trkpt>
      <trkpt lat="43.79823" lon="4.29949">
        <ele>49.16</ele>
        <time>2014-11-24T13:03:21Z</time>
      </trkpt>
      <trkpt lat="43.79826" lon="4.29946">
        <ele>48.68</ele>
        <time>2014-11-24T13:03:24Z</time>
      </trkpt>
      <trkpt lat="43.79838" lon="4.29938">
        <ele>46.76</ele>
        <time>2014-11-24T13:03:36Z</time>
      </trkpt>
      <trkpt lat="43.79852" lon="4.29928">
        <ele>44.84</ele>
        <time>2014-11-24T13:03:49Z</time>
      </trkpt>
      <trkpt lat="43.79863" lon="4.29913">
        <ele>46.76</ele>
        <time>2014-11-24T13:04:04Z</time>
      </trkpt>
      <trkpt lat="43.79878" lon="4.29897">
        <ele>47.24</ele>
        <time>2014-11-24T13:04:21Z</time>
      </trkpt>
      <trkpt lat="43.79893" lon="4.29889">
        <ele>49.16</ele>
        <time>2014-11-24T13:04:34Z</time>
      </trkpt>
      <trkpt lat="43.79904" lon="4.29877">
        <ele>50.61</ele>
        <time>2014-11-24T13:04:48Z</time>
      </trkpt>
      <trkpt lat="43.79914" lon="4.29862">
        <ele>53.49</ele>
        <time>2014-11-24T13:05:02Z</time>
      </trkpt>
      <trkpt lat="43.79918" lon="4.2986">
        <ele>56.86</ele>
        <time>2014-11-24T13:05:14Z</time>
      </trkpt>
      <trkpt lat="43.79918" lon="4.2986">
        <ele>56.86</ele>
        <time>2014-11-24T13:05:38Z</time>
      </trkpt>
      <trkpt lat="43.79922" lon="4.29861">
        <ele>57.82</ele>
        <time>2014-11-24T13:05:54Z</time>
      </trkpt>
      <trkpt lat="43.79921" lon="4.2986">
        <ele>59.74</ele>
        <time>2014-11-24T13:06:30Z</time>
      </trkpt>
      <trkpt lat="43.79923" lon="4.29854">
        <ele>60.22</ele>
        <time>2014-11-24T13:06:34Z</time>
      </trkpt>
      <trkpt lat="43.79926" lon="4.29848">
        <ele>60.22</ele>
        <time>2014-11-24T13:06:39Z</time>
      </trkpt>
      <trkpt lat="43.79933" lon="4.2984">
        <ele>59.74</ele>
        <time>2014-11-24T13:06:47Z</time>
      </trkpt>
      <trkpt lat="43.79938" lon="4.2983">
        <ele>58.78</ele>
        <time>2014-11-24T13:06:54Z</time>
      </trkpt>
      <trkpt lat="43.79945" lon="4.29819">
        <ele>57.82</ele>
        <time>2014-11-24T13:07:02Z</time>
      </trkpt>
      <trkpt lat="43.79949" lon="4.29814">
        <ele>56.86</ele>
        <time>2014-11-24T13:07:06Z</time>
      </trkpt>
      <trkpt lat="43.79953" lon="4.29805">
        <ele>56.86</ele>
        <time>2014-11-24T13:07:12Z</time>
      </trkpt>
      <trkpt lat="43.79963" lon="4.29782">
        <ele>58.78</ele>
        <time>2014-11-24T13:07:26Z</time>
      </trkpt>
      <trkpt lat="43.79964" lon="4.2978">
        <ele>58.78</ele>
        <time>2014-11-24T13:07:28Z</time>
      </trkpt>
      <trkpt lat="43.79969" lon="4.29773">
        <ele>58.78</ele>
        <time>2014-11-24T13:07:33Z</time>
      </trkpt>
      <trkpt lat="43.79979" lon="4.29754">
        <ele>57.82</ele>
        <time>2014-11-24T13:07:45Z</time>
      </trkpt>
      <trkpt lat="43.79982" lon="4.29748">
        <ele>58.3</ele>
        <time>2014-11-24T13:07:50Z</time>
      </trkpt>
      <trkpt lat="43.80001" lon="4.29735">
        <ele>56.37</ele>
        <time>2014-11-24T13:08:04Z</time>
      </trkpt>
      <trkpt lat="43.80014" lon="4.29724">
        <ele>58.78</ele>
        <time>2014-11-24T13:08:16Z</time>
      </trkpt>
      <trkpt lat="43.80029" lon="4.29713">
        <ele>57.34</ele>
        <time>2014-11-24T13:08:30Z</time>
      </trkpt>
      <trkpt lat="43.80038" lon="4.29706">
        <ele>57.34</ele>
        <time>2014-11-24T13:08:38Z</time>
      </trkpt>
      <trkpt lat="43.80052" lon="4.29693">
        <ele>58.3</ele>
        <time>2014-11-24T13:08:51Z</time>
      </trkpt>
      <trkpt lat="43.80063" lon="4.29683">
        <ele>61.66</ele>
        <time>2014-11-24T13:09:02Z</time>
      </trkpt>
      <trkpt lat="43.80072" lon="4.29669">
        <ele>63.58</ele>
        <time>2014-11-24T13:09:16Z</time>
      </trkpt>
      <trkpt lat="43.80075" lon="4.29667">
        <ele>63.58</ele>
        <time>2014-11-24T13:09:33Z</time>
      </trkpt>
      <trkpt lat="43.80076" lon="4.29661">
        <ele>64.07</ele>
        <time>2014-11-24T13:09:49Z</time>
      </trkpt>
      <trkpt lat="43.80083" lon="4.29653">
        <ele>65.51</ele>
        <time>2014-11-24T13:10:05Z</time>
      </trkpt>
      <trkpt lat="43.80083" lon="4.29657">
        <ele>64.55</ele>
        <time>2014-11-24T13:10:22Z</time>
      </trkpt>
      <trkpt lat="43.80083" lon="4.29657">
        <ele>65.03</ele>
        <time>2014-11-24T13:10:23Z</time>
      </trkpt>
      <trkpt lat="43.80081" lon="4.29658">
        <ele>66.47</ele>
        <time>2014-11-24T13:10:38Z</time>
      </trkpt>
      <trkpt lat="43.80081" lon="4.29658">
        <ele>66.95</ele>
        <time>2014-11-24T13:11:15Z</time>
      </trkpt>
      <trkpt lat="43.80082" lon="4.29654">
        <ele>67.91</ele>
        <time>2014-11-24T13:11:33Z</time>
      </trkpt>
      <trkpt lat="43.80084" lon="4.29642">
        <ele>66.95</ele>
        <time>2014-11-24T13:11:41Z</time>
      </trkpt>
      <trkpt lat="43.80086" lon="4.29623">
        <ele>65.99</ele>
        <time>2014-11-24T13:11:54Z</time>
      </trkpt>
      <trkpt lat="43.80089" lon="4.29613">
        <ele>65.51</ele>
        <time>2014-11-24T13:12:01Z</time>
      </trkpt>
      <trkpt lat="43.80088" lon="4.29597">
        <ele>63.58</ele>
        <time>2014-11-24T13:12:12Z</time>
      </trkpt>
      <trkpt lat="43.80084" lon="4.29579">
        <ele>61.66</ele>
        <time>2014-11-24T13:12:24Z</time>
      </trkpt>
      <trkpt lat="43.80082" lon="4.29562">
        <ele>59.74</ele>
        <time>2014-11-24T13:12:36Z</time>
      </trkpt>
      <trkpt lat="43.80076" lon="4.29548">
        <ele>57.82</ele>
        <time>2014-11-24T13:12:47Z</time>
      </trkpt>
      <trkpt lat="43.80068" lon="4.29532">
        <ele>57.34</ele>
        <time>2014-11-24T13:13:00Z</time>
      </trkpt>
      <trkpt lat="43.80061" lon="4.29514">
        <ele>58.3</ele>
        <time>2014-11-24T13:13:12Z</time>
      </trkpt>
      <trkpt lat="43.80051" lon="4.295">
        <ele>60.22</ele>
        <time>2014-11-24T13:13:24Z</time>
      </trkpt>
      <trkpt lat="43.80035" lon="4.29492">
        <ele>61.18</ele>
        <time>2014-11-24T13:13:38Z</time>
      </trkpt>
      <trkpt lat="43.80027" lon="4.29487">
        <ele>63.1</ele>
        <time>2014-11-24T13:13:46Z</time>
      </trkpt>
      <trkpt lat="43.80025" lon="4.29485">
        <ele>62.62</ele>
        <time>2014-11-24T13:13:48Z</time>
      </trkpt>
      <trkpt lat="43.80012" lon="4.29481">
        <ele>64.07</ele>
        <time>2014-11-24T13:13:59Z</time>
      </trkpt>
      <trkpt lat="43.80004" lon="4.29478">
        <ele>63.58</ele>
        <time>2014-11-24T13:14:06Z</time>
      </trkpt>
      <trkpt lat="43.79989" lon="4.29479">
        <ele>64.55</ele>
        <time>2014-11-24T13:14:18Z</time>
      </trkpt>
      <trkpt lat="43.79987" lon="4.29479">
        <ele>65.03</ele>
        <time>2014-11-24T13:14:20Z</time>
      </trkpt>
      <trkpt lat="43.79984" lon="4.29479">
        <ele>65.03</ele>
        <time>2014-11-24T13:14:22Z</time>
      </trkpt>
      <trkpt lat="43.79967" lon="4.29479">
        <ele>62.14</ele>
        <time>2014-11-24T13:14:35Z</time>
      </trkpt>
      <trkpt lat="43.79966" lon="4.29479">
        <ele>62.14</ele>
        <time>2014-11-24T13:14:36Z</time>
      </trkpt>
      <trkpt lat="43.79958" lon="4.29474">
        <ele>62.14</ele>
        <time>2014-11-24T13:14:43Z</time>
      </trkpt>
      <trkpt lat="43.7995" lon="4.29467">
        <ele>60.7</ele>
        <time>2014-11-24T13:14:50Z</time>
      </trkpt>
      <trkpt lat="43.79941" lon="4.29455">
        <ele>58.78</ele>
        <time>2014-11-24T13:15:00Z</time>
      </trkpt>
      <trkpt lat="43.79938" lon="4.29453">
        <ele>58.78</ele>
        <time>2014-11-24T13:15:03Z</time>
      </trkpt>
      <trkpt lat="43.79927" lon="4.2944">
        <ele>56.37</ele>
        <time>2014-11-24T13:15:16Z</time>
      </trkpt>
      <trkpt lat="43.79926" lon="4.29437">
        <ele>56.37</ele>
        <time>2014-11-24T13:15:18Z</time>
      </trkpt>
      <trkpt lat="43.79915" lon="4.29426">
        <ele>54.45</ele>
        <time>2014-11-24T13:15:29Z</time>
      </trkpt>
      <trkpt lat="43.79906" lon="4.29415">
        <ele>52.53</ele>
        <time>2014-11-24T13:15:39Z</time>
      </trkpt>
      <trkpt lat="43.79895" lon="4.294">
        <ele>50.13</ele>
        <time>2014-11-24T13:15:52Z</time>
      </trkpt>
      <trkpt lat="43.79887" lon="4.29393">
        <ele>48.68</ele>
        <time>2014-11-24T13:16:00Z</time>
      </trkpt>
      <trkpt lat="43.79878" lon="4.29388">
        <ele>49.65</ele>
        <time>2014-11-24T13:16:08Z</time>
      </trkpt>
      <trkpt lat="43.79873" lon="4.29384">
        <ele>50.13</ele>
        <time>2014-11-24T13:16:12Z</time>
      </trkpt>
      <trkpt lat="43.79871" lon="4.29382">
        <ele>51.57</ele>
        <time>2014-11-24T13:16:14Z</time>
      </trkpt>
      <trkpt lat="43.79864" lon="4.29377">
        <ele>53.01</ele>
        <time>2014-11-24T13:16:20Z</time>
      </trkpt>
      <trkpt lat="43.7985" lon="4.29367">
        <ele>51.57</ele>
        <time>2014-11-24T13:16:32Z</time>
      </trkpt>
      <trkpt lat="43.79847" lon="4.29366">
        <ele>52.05</ele>
        <time>2014-11-24T13:16:35Z</time>
      </trkpt>
      <trkpt lat="43.79834" lon="4.29355">
        <ele>51.57</ele>
        <time>2014-11-24T13:16:48Z</time>
      </trkpt>
      <trkpt lat="43.79825" lon="4.29349">
        <ele>52.05</ele>
        <time>2014-11-24T13:16:56Z</time>
      </trkpt>
      <trkpt lat="43.79814" lon="4.29338">
        <ele>51.57</ele>
        <time>2014-11-24T13:17:07Z</time>
      </trkpt>
      <trkpt lat="43.79803" lon="4.2933">
        <ele>50.61</ele>
        <time>2014-11-24T13:17:18Z</time>
      </trkpt>
      <trkpt lat="43.79791" lon="4.29321">
        <ele>49.16</ele>
        <time>2014-11-24T13:17:30Z</time>
      </trkpt>
      <trkpt lat="43.79777" lon="4.29313">
        <ele>49.16</ele>
        <time>2014-11-24T13:17:43Z</time>
      </trkpt>
      <trkpt lat="43.79761" lon="4.29305">
        <ele>48.2</ele>
        <time>2014-11-24T13:17:57Z</time>
      </trkpt>
      <trkpt lat="43.79749" lon="4.29298">
        <ele>48.2</ele>
        <time>2014-11-24T13:18:08Z</time>
      </trkpt>
      <trkpt lat="43.79736" lon="4.29294">
        <ele>49.65</ele>
        <time>2014-11-24T13:18:19Z</time>
      </trkpt>
      <trkpt lat="43.7972" lon="4.29291">
        <ele>50.13</ele>
        <time>2014-11-24T13:18:33Z</time>
      </trkpt>
      <trkpt lat="43.79719" lon="4.29291">
        <ele>50.13</ele>
        <time>2014-11-24T13:18:34Z</time>
      </trkpt>
      <trkpt lat="43.79711" lon="4.29296">
        <ele>49.65</ele>
        <time>2014-11-24T13:18:42Z</time>
      </trkpt>
      <trkpt lat="43.79697" lon="4.29307">
        <ele>48.68</ele>
        <time>2014-11-24T13:18:54Z</time>
      </trkpt>
      <trkpt lat="43.79684" lon="4.29309">
        <ele>50.13</ele>
        <time>2014-11-24T13:19:05Z</time>
      </trkpt>
      <trkpt lat="43.79672" lon="4.29308">
        <ele>50.13</ele>
        <time>2014-11-24T13:19:16Z</time>
      </trkpt>
      <trkpt lat="43.79657" lon="4.29309">
        <ele>53.01</ele>
        <time>2014-11-24T13:19:29Z</time>
      </trkpt>
      <trkpt lat="43.79642" lon="4.29311">
        <ele>50.61</ele>
        <time>2014-11-24T13:19:42Z</time>
      </trkpt>
      <trkpt lat="43.79627" lon="4.2931">
        <ele>50.13</ele>
        <time>2014-11-24T13:19:54Z</time>
      </trkpt>
      <trkpt lat="43.79624" lon="4.29309">
        <ele>50.13</ele>
        <time>2014-11-24T13:19:57Z</time>
      </trkpt>
      <trkpt lat="43.79609" lon="4.29308">
        <ele>49.65</ele>
        <time>2014-11-24T13:20:11Z</time>
      </trkpt>
      <trkpt lat="43.79608" lon="4.29308">
        <ele>49.65</ele>
        <time>2014-11-24T13:20:13Z</time>
      </trkpt>
      <trkpt lat="43.79591" lon="4.29308">
        <ele>50.61</ele>
        <time>2014-11-24T13:20:27Z</time>
      </trkpt>
      <trkpt lat="43.7958" lon="4.29311">
        <ele>50.61</ele>
        <time>2014-11-24T13:20:36Z</time>
      </trkpt>
      <trkpt lat="43.79578" lon="4.29311">
        <ele>50.61</ele>
        <time>2014-11-24T13:20:38Z</time>
      </trkpt>
      <trkpt lat="43.7957" lon="4.29313">
        <ele>49.16</ele>
        <time>2014-11-24T13:20:45Z</time>
      </trkpt>
      <trkpt lat="43.79555" lon="4.29308">
        <ele>46.76</ele>
        <time>2014-11-24T13:20:58Z</time>
      </trkpt>
      <trkpt lat="43.79552" lon="4.29306">
        <ele>46.28</ele>
        <time>2014-11-24T13:21:00Z</time>
      </trkpt>
      <trkpt lat="43.79546" lon="4.29302">
        <ele>44.36</ele>
        <time>2014-11-24T13:21:07Z</time>
      </trkpt>
      <trkpt lat="43.79542" lon="4.29301">
        <ele>43.88</ele>
        <time>2014-11-24T13:21:11Z</time>
      </trkpt>
      <trkpt lat="43.79527" lon="4.29295">
        <ele>45.32</ele>
        <time>2014-11-24T13:21:23Z</time>
      </trkpt>
      <trkpt lat="43.79514" lon="4.29288">
        <ele>45.32</ele>
        <time>2014-11-24T13:21:36Z</time>
      </trkpt>
      <trkpt lat="43.79501" lon="4.29279">
        <ele>45.32</ele>
        <time>2014-11-24T13:21:47Z</time>
      </trkpt>
      <trkpt lat="43.79498" lon="4.29274">
        <ele>44.84</ele>
        <time>2014-11-24T13:21:51Z</time>
      </trkpt>
      <trkpt lat="43.79489" lon="4.29256">
        <ele>45.32</ele>
        <time>2014-11-24T13:22:04Z</time>
      </trkpt>
      <trkpt lat="43.79487" lon="4.29253">
        <ele>45.32</ele>
        <time>2014-11-24T13:22:06Z</time>
      </trkpt>
      <trkpt lat="43.79477" lon="4.29239">
        <ele>45.32</ele>
        <time>2014-11-24T13:22:19Z</time>
      </trkpt>
      <trkpt lat="43.79466" lon="4.29226">
        <ele>47.24</ele>
        <time>2014-11-24T13:22:30Z</time>
      </trkpt>
      <trkpt lat="43.79459" lon="4.2922">
        <ele>46.28</ele>
        <time>2014-11-24T13:22:37Z</time>
      </trkpt>
      <trkpt lat="43.79447" lon="4.29211">
        <ele>47.72</ele>
        <time>2014-11-24T13:22:49Z</time>
      </trkpt>
      <trkpt lat="43.79446" lon="4.2921">
        <ele>47.72</ele>
        <time>2014-11-24T13:22:51Z</time>
      </trkpt>
      <trkpt lat="43.79435" lon="4.29198">
        <ele>45.8</ele>
        <time>2014-11-24T13:23:02Z</time>
      </trkpt>
      <trkpt lat="43.79433" lon="4.29197">
        <ele>45.32</ele>
        <time>2014-11-24T13:23:04Z</time>
      </trkpt>
      <trkpt lat="43.79428" lon="4.29192">
        <ele>44.84</ele>
        <time>2014-11-24T13:23:09Z</time>
      </trkpt>
      <trkpt lat="43.79418" lon="4.29181">
        <ele>43.88</ele>
        <time>2014-11-24T13:23:20Z</time>
      </trkpt>
      <trkpt lat="43.79409" lon="4.29172">
        <ele>43.88</ele>
        <time>2014-11-24T13:23:30Z</time>
      </trkpt>
      <trkpt lat="43.79405" lon="4.29168">
        <ele>44.36</ele>
        <time>2014-11-24T13:23:34Z</time>
      </trkpt>
      <trkpt lat="43.79395" lon="4.29154">
        <ele>43.88</ele>
        <time>2014-11-24T13:23:47Z</time>
      </trkpt>
      <trkpt lat="43.79394" lon="4.29152">
        <ele>43.88</ele>
        <time>2014-11-24T13:23:49Z</time>
      </trkpt>
      <trkpt lat="43.79384" lon="4.29134">
        <ele>42.92</ele>
        <time>2014-11-24T13:24:03Z</time>
      </trkpt>
      <trkpt lat="43.79375" lon="4.29119">
        <ele>43.88</ele>
        <time>2014-11-24T13:24:15Z</time>
      </trkpt>
      <trkpt lat="43.79367" lon="4.29106">
        <ele>45.32</ele>
        <time>2014-11-24T13:24:25Z</time>
      </trkpt>
      <trkpt lat="43.79362" lon="4.29092">
        <ele>45.8</ele>
        <time>2014-11-24T13:24:35Z</time>
      </trkpt>
      <trkpt lat="43.79363" lon="4.29085">
        <ele>44.84</ele>
        <time>2014-11-24T13:24:39Z</time>
      </trkpt>
      <trkpt lat="43.79374" lon="4.2907">
        <ele>42.44</ele>
        <time>2014-11-24T13:24:52Z</time>
      </trkpt>
      <trkpt lat="43.79375" lon="4.29063">
        <ele>42.92</ele>
        <time>2014-11-24T13:24:58Z</time>
      </trkpt>
      <trkpt lat="43.79373" lon="4.29059">
        <ele>42.92</ele>
        <time>2014-11-24T13:25:12Z</time>
      </trkpt>
      <trkpt lat="43.79372" lon="4.29055">
        <ele>44.36</ele>
        <time>2014-11-24T13:25:30Z</time>
      </trkpt>
      <trkpt lat="43.79374" lon="4.29046">
        <ele>41.47</ele>
        <time>2014-11-24T13:25:52Z</time>
      </trkpt>
      <trkpt lat="43.79375" lon="4.29047">
        <ele>40.99</ele>
        <time>2014-11-24T13:26:11Z</time>
      </trkpt>
      <trkpt lat="43.79375" lon="4.29047">
        <ele>40.99</ele>
        <time>2014-11-24T13:26:32Z</time>
      </trkpt>
      <trkpt lat="43.79375" lon="4.29049">
        <ele>41.95</ele>
        <time>2014-11-24T13:26:50Z</time>
      </trkpt>
      <trkpt lat="43.79376" lon="4.29053">
        <ele>43.88</ele>
        <time>2014-11-24T13:27:12Z</time>
      </trkpt>
      <trkpt lat="43.79375" lon="4.29052">
        <ele>45.8</ele>
        <time>2014-11-24T13:27:38Z</time>
      </trkpt>
      <trkpt lat="43.79375" lon="4.2905">
        <ele>48.2</ele>
        <time>2014-11-24T13:28:03Z</time>
      </trkpt>
      <trkpt lat="43.79369" lon="4.29038">
        <ele>50.61</ele>
        <time>2014-11-24T13:28:14Z</time>
      </trkpt>
      <trkpt lat="43.79367" lon="4.2903">
        <ele>52.53</ele>
        <time>2014-11-24T13:28:21Z</time>
      </trkpt>
      <trkpt lat="43.79363" lon="4.29013">
        <ele>54.93</ele>
        <time>2014-11-24T13:28:34Z</time>
      </trkpt>
      <trkpt lat="43.79363" lon="4.29007">
        <ele>53.97</ele>
        <time>2014-11-24T13:28:37Z</time>
      </trkpt>
      <trkpt lat="43.79364" lon="4.28987">
        <ele>53.01</ele>
        <time>2014-11-24T13:28:50Z</time>
      </trkpt>
      <trkpt lat="43.79359" lon="4.2897">
        <ele>52.05</ele>
        <time>2014-11-24T13:29:02Z</time>
      </trkpt>
      <trkpt lat="43.79353" lon="4.28955">
        <ele>52.53</ele>
        <time>2014-11-24T13:29:13Z</time>
      </trkpt>
      <trkpt lat="43.79348" lon="4.2894">
        <ele>53.97</ele>
        <time>2014-11-24T13:29:24Z</time>
      </trkpt>
      <trkpt lat="43.79342" lon="4.28922">
        <ele>52.53</ele>
        <time>2014-11-24T13:29:36Z</time>
      </trkpt>
      <trkpt lat="43.79341" lon="4.28919">
        <ele>53.01</ele>
        <time>2014-11-24T13:29:38Z</time>
      </trkpt>
      <trkpt lat="43.79336" lon="4.28904">
        <ele>53.49</ele>
        <time>2014-11-24T13:29:51Z</time>
      </trkpt>
      <trkpt lat="43.79335" lon="4.28905">
        <ele>53.01</ele>
        <time>2014-11-24T13:30:09Z</time>
      </trkpt>
      <trkpt lat="43.79332" lon="4.28893">
        <ele>52.53</ele>
        <time>2014-11-24T13:30:18Z</time>
      </trkpt>
      <trkpt lat="43.79328" lon="4.28872">
        <ele>51.09</ele>
        <time>2014-11-24T13:30:31Z</time>
      </trkpt>
      <trkpt lat="43.79328" lon="4.2887">
        <ele>51.09</ele>
        <time>2014-11-24T13:30:32Z</time>
      </trkpt>
      <trkpt lat="43.79326" lon="4.28861">
        <ele>50.13</ele>
        <time>2014-11-24T13:30:38Z</time>
      </trkpt>
      <trkpt lat="43.7932" lon="4.28845">
        <ele>51.09</ele>
        <time>2014-11-24T13:30:49Z</time>
      </trkpt>
      <trkpt lat="43.79317" lon="4.28835">
        <ele>51.57</ele>
        <time>2014-11-24T13:30:55Z</time>
      </trkpt>
      <trkpt lat="43.79314" lon="4.28825">
        <ele>53.01</ele>
        <time>2014-11-24T13:31:02Z</time>
      </trkpt>
      <trkpt lat="43.79313" lon="4.28816">
        <ele>55.41</ele>
        <time>2014-11-24T13:31:08Z</time>
      </trkpt>
      <trkpt lat="43.79309" lon="4.28795">
        <ele>56.37</ele>
        <time>2014-11-24T13:31:21Z</time>
      </trkpt>
      <trkpt lat="43.79309" lon="4.28793">
        <ele>55.89</ele>
        <time>2014-11-24T13:31:22Z</time>
      </trkpt>
      <trkpt lat="43.79301" lon="4.28773">
        <ele>54.93</ele>
        <time>2014-11-24T13:31:35Z</time>
      </trkpt>
      <trkpt lat="43.79301" lon="4.28771">
        <ele>54.93</ele>
        <time>2014-11-24T13:31:36Z</time>
      </trkpt>
      <trkpt lat="43.79295" lon="4.28755">
        <ele>54.45</ele>
        <time>2014-11-24T13:31:47Z</time>
      </trkpt>
      <trkpt lat="43.79291" lon="4.28739">
        <ele>55.89</ele>
        <time>2014-11-24T13:31:58Z</time>
      </trkpt>
      <trkpt lat="43.79287" lon="4.28724">
        <ele>56.37</ele>
        <time>2014-11-24T13:32:08Z</time>
      </trkpt>
      <trkpt lat="43.79287" lon="4.28709">
        <ele>55.89</ele>
        <time>2014-11-24T13:32:16Z</time>
      </trkpt>
      <trkpt lat="43.79289" lon="4.2869">
        <ele>54.45</ele>
        <time>2014-11-24T13:32:27Z</time>
      </trkpt>
      <trkpt lat="43.79294" lon="4.28679">
        <ele>53.49</ele>
        <time>2014-11-24T13:32:35Z</time>
      </trkpt>
      <trkpt lat="43.79301" lon="4.28672">
        <ele>52.53</ele>
        <time>2014-11-24T13:32:42Z</time>
      </trkpt>
      <trkpt lat="43.79303" lon="4.28647">
        <ele>52.53</ele>
        <time>2014-11-24T13:32:56Z</time>
      </trkpt>
      <trkpt lat="43.79302" lon="4.2864">
        <ele>52.05</ele>
        <time>2014-11-24T13:33:06Z</time>
      </trkpt>
      <trkpt lat="43.79306" lon="4.28653">
        <ele>54.45</ele>
        <time>2014-11-24T13:33:16Z</time>
      </trkpt>
      <trkpt lat="43.7931" lon="4.28662">
        <ele>58.78</ele>
        <time>2014-11-24T13:33:28Z</time>
      </trkpt>
      <trkpt lat="43.79316" lon="4.28665">
        <ele>58.78</ele>
        <time>2014-11-24T13:33:41Z</time>
      </trkpt>
      <trkpt lat="43.79324" lon="4.28674">
        <ele>60.7</ele>
        <time>2014-11-24T13:33:58Z</time>
      </trkpt>
      <trkpt lat="43.79334" lon="4.28683">
        <ele>60.22</ele>
        <time>2014-11-24T13:34:11Z</time>
      </trkpt>
      <trkpt lat="43.79343" lon="4.28691">
        <ele>62.14</ele>
        <time>2014-11-24T13:34:25Z</time>
      </trkpt>
      <trkpt lat="43.7935" lon="4.28697">
        <ele>62.62</ele>
        <time>2014-11-24T13:34:40Z</time>
      </trkpt>
      <trkpt lat="43.79356" lon="4.28706">
        <ele>65.51</ele>
        <time>2014-11-24T13:34:53Z</time>
      </trkpt>
      <trkpt lat="43.79361" lon="4.28715">
        <ele>67.43</ele>
        <time>2014-11-24T13:35:05Z</time>
      </trkpt>
      <trkpt lat="43.7937" lon="4.28726">
        <ele>68.87</ele>
        <time>2014-11-24T13:35:17Z</time>
      </trkpt>
      <trkpt lat="43.79378" lon="4.28734">
        <ele>69.35</ele>
        <time>2014-11-24T13:35:29Z</time>
      </trkpt>
      <trkpt lat="43.79386" lon="4.28738">
        <ele>66.47</ele>
        <time>2014-11-24T13:35:42Z</time>
      </trkpt>
      <trkpt lat="43.7939" lon="4.2874">
        <ele>66.47</ele>
        <time>2014-11-24T13:35:48Z</time>
      </trkpt>
      <trkpt lat="43.79398" lon="4.28741">
        <ele>67.43</ele>
        <time>2014-11-24T13:36:00Z</time>
      </trkpt>
      <trkpt lat="43.7941" lon="4.28745">
        <ele>67.91</ele>
        <time>2014-11-24T13:36:14Z</time>
      </trkpt>
      <trkpt lat="43.79418" lon="4.28751">
        <ele>67.91</ele>
        <time>2014-11-24T13:36:27Z</time>
      </trkpt>
      <trkpt lat="43.79426" lon="4.28758">
        <ele>70.31</ele>
        <time>2014-11-24T13:36:40Z</time>
      </trkpt>
      <trkpt lat="43.79436" lon="4.28763">
        <ele>72.72</ele>
        <time>2014-11-24T13:36:53Z</time>
      </trkpt>
      <trkpt lat="43.79443" lon="4.28766">
        <ele>73.68</ele>
        <time>2014-11-24T13:37:03Z</time>
      </trkpt>
      <trkpt lat="43.79452" lon="4.2877">
        <ele>74.16</ele>
        <time>2014-11-24T13:37:13Z</time>
      </trkpt>
      <trkpt lat="43.79459" lon="4.28774">
        <ele>74.16</ele>
        <time>2014-11-24T13:37:24Z</time>
      </trkpt>
      <trkpt lat="43.79469" lon="4.28777">
        <ele>74.16</ele>
        <time>2014-11-24T13:37:36Z</time>
      </trkpt>
      <trkpt lat="43.79476" lon="4.28779">
        <ele>74.64</ele>
        <time>2014-11-24T13:37:46Z</time>
      </trkpt>
      <trkpt lat="43.79487" lon="4.28778">
        <ele>77.04</ele>
        <time>2014-11-24T13:37:58Z</time>
      </trkpt>
      <trkpt lat="43.79498" lon="4.28778">
        <ele>79.93</ele>
        <time>2014-11-24T13:38:10Z</time>
      </trkpt>
      <trkpt lat="43.79505" lon="4.28779">
        <ele>79.93</ele>
        <time>2014-11-24T13:38:21Z</time>
      </trkpt>
      <trkpt lat="43.79516" lon="4.2878">
        <ele>78.97</ele>
        <time>2014-11-24T13:38:33Z</time>
      </trkpt>
      <trkpt lat="43.79519" lon="4.28779">
        <ele>80.41</ele>
        <time>2014-11-24T13:38:46Z</time>
      </trkpt>
      <trkpt lat="43.7952" lon="4.28783">
        <ele>81.85</ele>
        <time>2014-11-24T13:39:12Z</time>
      </trkpt>
      <trkpt lat="43.7952" lon="4.28787">
        <ele>83.29</ele>
        <time>2014-11-24T13:39:34Z</time>
      </trkpt>
      <trkpt lat="43.79522" lon="4.28779">
        <ele>81.85</ele>
        <time>2014-11-24T13:39:58Z</time>
      </trkpt>
      <trkpt lat="43.79527" lon="4.28773">
        <ele>78.97</ele>
        <time>2014-11-24T13:40:10Z</time>
      </trkpt>
      <trkpt lat="43.79536" lon="4.28769">
        <ele>77.04</ele>
        <time>2014-11-24T13:40:22Z</time>
      </trkpt>
      <trkpt lat="43.79545" lon="4.28766">
        <ele>75.6</ele>
        <time>2014-11-24T13:40:34Z</time>
      </trkpt>
      <trkpt lat="43.79557" lon="4.28768">
        <ele>74.16</ele>
        <time>2014-11-24T13:40:46Z</time>
      </trkpt>
      <trkpt lat="43.7957" lon="4.28767">
        <ele>75.6</ele>
        <time>2014-11-24T13:40:59Z</time>
      </trkpt>
      <trkpt lat="43.79579" lon="4.28766">
        <ele>75.6</ele>
        <time>2014-11-24T13:41:09Z</time>
      </trkpt>
      <trkpt lat="43.79581" lon="4.28764">
        <ele>76.08</ele>
        <time>2014-11-24T13:41:12Z</time>
      </trkpt>
      <trkpt lat="43.79592" lon="4.28759">
        <ele>76.08</ele>
        <time>2014-11-24T13:41:23Z</time>
      </trkpt>
      <trkpt lat="43.79602" lon="4.28755">
        <ele>75.6</ele>
        <time>2014-11-24T13:41:35Z</time>
      </trkpt>
      <trkpt lat="43.79614" lon="4.28755">
        <ele>77.04</ele>
        <time>2014-11-24T13:41:46Z</time>
      </trkpt>
      <trkpt lat="43.79624" lon="4.28752">
        <ele>77.04</ele>
        <time>2014-11-24T13:41:58Z</time>
      </trkpt>
      <trkpt lat="43.79637" lon="4.28751">
        <ele>77.04</ele>
        <time>2014-11-24T13:42:13Z</time>
      </trkpt>
      <trkpt lat="43.79638" lon="4.2875">
        <ele>77.52</ele>
        <time>2014-11-24T13:42:15Z</time>
      </trkpt>
      <trkpt lat="43.79648" lon="4.28748">
        <ele>78</ele>
        <time>2014-11-24T13:42:27Z</time>
      </trkpt>
      <trkpt lat="43.79659" lon="4.2874">
        <ele>78</ele>
        <time>2014-11-24T13:42:39Z</time>
      </trkpt>
      <trkpt lat="43.79667" lon="4.28735">
        <ele>79.45</ele>
        <time>2014-11-24T13:42:49Z</time>
      </trkpt>
      <trkpt lat="43.79668" lon="4.28734">
        <ele>79.45</ele>
        <time>2014-11-24T13:42:51Z</time>
      </trkpt>
      <trkpt lat="43.79679" lon="4.28722">
        <ele>75.6</ele>
        <time>2014-11-24T13:43:04Z</time>
      </trkpt>
      <trkpt lat="43.79687" lon="4.28709">
        <ele>73.68</ele>
        <time>2014-11-24T13:43:16Z</time>
      </trkpt>
      <trkpt lat="43.79688" lon="4.28705">
        <ele>73.68</ele>
        <time>2014-11-24T13:43:19Z</time>
      </trkpt>
      <trkpt lat="43.79689" lon="4.28703">
        <ele>73.68</ele>
        <time>2014-11-24T13:43:21Z</time>
      </trkpt>
      <trkpt lat="43.79691" lon="4.28694">
        <ele>75.12</ele>
        <time>2014-11-24T13:43:29Z</time>
      </trkpt>
      <trkpt lat="43.79695" lon="4.28686">
        <ele>75.6</ele>
        <time>2014-11-24T13:43:35Z</time>
      </trkpt>
      <trkpt lat="43.79696" lon="4.2868">
        <ele>76.08</ele>
        <time>2014-11-24T13:43:39Z</time>
      </trkpt>
      <trkpt lat="43.79698" lon="4.28672">
        <ele>76.08</ele>
        <time>2014-11-24T13:43:44Z</time>
      </trkpt>
      <trkpt lat="43.79702" lon="4.28667">
        <ele>76.08</ele>
        <time>2014-11-24T13:43:49Z</time>
      </trkpt>
      <trkpt lat="43.79713" lon="4.28663">
        <ele>75.12</ele>
        <time>2014-11-24T13:44:01Z</time>
      </trkpt>
      <trkpt lat="43.79714" lon="4.28664">
        <ele>75.12</ele>
        <time>2014-11-24T13:44:02Z</time>
      </trkpt>
      <trkpt lat="43.79727" lon="4.2867">
        <ele>73.68</ele>
        <time>2014-11-24T13:44:14Z</time>
      </trkpt>
      <trkpt lat="43.7974" lon="4.28679">
        <ele>73.2</ele>
        <time>2014-11-24T13:44:27Z</time>
      </trkpt>
      <trkpt lat="43.79749" lon="4.28684">
        <ele>72.72</ele>
        <time>2014-11-24T13:44:38Z</time>
      </trkpt>
      <trkpt lat="43.79764" lon="4.28683">
        <ele>71.76</ele>
        <time>2014-11-24T13:44:51Z</time>
      </trkpt>
      <trkpt lat="43.79777" lon="4.28682">
        <ele>71.76</ele>
        <time>2014-11-24T13:45:04Z</time>
      </trkpt>
      <trkpt lat="43.79785" lon="4.2868">
        <ele>71.76</ele>
        <time>2014-11-24T13:45:12Z</time>
      </trkpt>
      <trkpt lat="43.79794" lon="4.28674">
        <ele>71.27</ele>
        <time>2014-11-24T13:45:22Z</time>
      </trkpt>
      <trkpt lat="43.79805" lon="4.28665">
        <ele>69.83</ele>
        <time>2014-11-24T13:45:35Z</time>
      </trkpt>
      <trkpt lat="43.79818" lon="4.28656">
        <ele>69.35</ele>
        <time>2014-11-24T13:45:48Z</time>
      </trkpt>
      <trkpt lat="43.79826" lon="4.28651">
        <ele>69.35</ele>
        <time>2014-11-24T13:45:55Z</time>
      </trkpt>
      <trkpt lat="43.79838" lon="4.28644">
        <ele>69.83</ele>
        <time>2014-11-24T13:46:07Z</time>
      </trkpt>
      <trkpt lat="43.79847" lon="4.28637">
        <ele>70.31</ele>
        <time>2014-11-24T13:46:18Z</time>
      </trkpt>
      <trkpt lat="43.79854" lon="4.28634">
        <ele>69.83</ele>
        <time>2014-11-24T13:46:31Z</time>
      </trkpt>
      <trkpt lat="43.79857" lon="4.28631">
        <ele>68.87</ele>
        <time>2014-11-24T13:46:49Z</time>
      </trkpt>
      <trkpt lat="43.79858" lon="4.28629">
        <ele>69.35</ele>
        <time>2014-11-24T13:47:11Z</time>
      </trkpt>
      <trkpt lat="43.79858" lon="4.2863">
        <ele>68.39</ele>
        <time>2014-11-24T13:47:41Z</time>
      </trkpt>
      <trkpt lat="43.79858" lon="4.28625">
        <ele>68.87</ele>
        <time>2014-11-24T13:47:57Z</time>
      </trkpt>
      <trkpt lat="43.79855" lon="4.28616">
        <ele>70.31</ele>
        <time>2014-11-24T13:48:09Z</time>
      </trkpt>
      <trkpt lat="43.79854" lon="4.28614">
        <ele>70.31</ele>
        <time>2014-11-24T13:48:11Z</time>
      </trkpt>
      <trkpt lat="43.79851" lon="4.28596">
        <ele>71.76</ele>
        <time>2014-11-24T13:48:25Z</time>
      </trkpt>
      <trkpt lat="43.79848" lon="4.28583">
        <ele>70.79</ele>
        <time>2014-11-24T13:48:37Z</time>
      </trkpt>
      <trkpt lat="43.79846" lon="4.28567">
        <ele>73.68</ele>
        <time>2014-11-24T13:48:49Z</time>
      </trkpt>
      <trkpt lat="43.79847" lon="4.28564">
        <ele>74.16</ele>
        <time>2014-11-24T13:48:52Z</time>
      </trkpt>
      <trkpt lat="43.79849" lon="4.28549">
        <ele>75.12</ele>
        <time>2014-11-24T13:49:03Z</time>
      </trkpt>
      <trkpt lat="43.79849" lon="4.28531">
        <ele>76.56</ele>
        <time>2014-11-24T13:49:15Z</time>
      </trkpt>
      <trkpt lat="43.79846" lon="4.28513">
        <ele>75.6</ele>
        <time>2014-11-24T13:49:27Z</time>
      </trkpt>
      <trkpt lat="43.79844" lon="4.28504">
        <ele>75.12</ele>
        <time>2014-11-24T13:49:33Z</time>
      </trkpt>
      <trkpt lat="43.79845" lon="4.28501">
        <ele>75.12</ele>
        <time>2014-11-24T13:49:35Z</time>
      </trkpt>
      <trkpt lat="43.79842" lon="4.28482">
        <ele>75.12</ele>
        <time>2014-11-24T13:49:48Z</time>
      </trkpt>
      <trkpt lat="43.79843" lon="4.28475">
        <ele>73.68</ele>
        <time>2014-11-24T13:49:54Z</time>
      </trkpt>
      <trkpt lat="43.79847" lon="4.2846">
        <ele>72.24</ele>
        <time>2014-11-24T13:50:06Z</time>
      </trkpt>
      <trkpt lat="43.79846" lon="4.28447">
        <ele>70.79</ele>
        <time>2014-11-24T13:50:19Z</time>
      </trkpt>
      <trkpt lat="43.79846" lon="4.28445">
        <ele>70.79</ele>
        <time>2014-11-24T13:50:21Z</time>
      </trkpt>
      <trkpt lat="43.79847" lon="4.28438">
        <ele>70.79</ele>
        <time>2014-11-24T13:50:27Z</time>
      </trkpt>
      <trkpt lat="43.79847" lon="4.28425">
        <ele>68.39</ele>
        <time>2014-11-24T13:50:38Z</time>
      </trkpt>
      <trkpt lat="43.79848" lon="4.28407">
        <ele>65.99</ele>
        <time>2014-11-24T13:50:51Z</time>
      </trkpt>
      <trkpt lat="43.79848" lon="4.28403">
        <ele>65.99</ele>
        <time>2014-11-24T13:50:54Z</time>
      </trkpt>
      <trkpt lat="43.79847" lon="4.28388">
        <ele>66.47</ele>
        <time>2014-11-24T13:51:07Z</time>
      </trkpt>
      <trkpt lat="43.79844" lon="4.2837">
        <ele>65.99</ele>
        <time>2014-11-24T13:51:22Z</time>
      </trkpt>
      <trkpt lat="43.79846" lon="4.28359">
        <ele>64.55</ele>
        <time>2014-11-24T13:51:33Z</time>
      </trkpt>
      <trkpt lat="43.7985" lon="4.28358">
        <ele>64.07</ele>
        <time>2014-11-24T13:51:53Z</time>
      </trkpt>
      <trkpt lat="43.79854" lon="4.28355">
        <ele>64.55</ele>
        <time>2014-11-24T13:52:07Z</time>
      </trkpt>
      <trkpt lat="43.79856" lon="4.28356">
        <ele>66.47</ele>
        <time>2014-11-24T13:52:23Z</time>
      </trkpt>
      <trkpt lat="43.79856" lon="4.28353">
        <ele>66.47</ele>
        <time>2014-11-24T13:52:39Z</time>
      </trkpt>
      <trkpt lat="43.79861" lon="4.28349">
        <ele>65.03</ele>
        <time>2014-11-24T13:52:52Z</time>
      </trkpt>
      <trkpt lat="43.79862" lon="4.28347">
        <ele>62.62</ele>
        <time>2014-11-24T13:53:06Z</time>
      </trkpt>
      <trkpt lat="43.79864" lon="4.28347">
        <ele>62.14</ele>
        <time>2014-11-24T13:53:27Z</time>
      </trkpt>
      <trkpt lat="43.7987" lon="4.28344">
        <ele>59.74</ele>
        <time>2014-11-24T13:53:37Z</time>
      </trkpt>
      <trkpt lat="43.79879" lon="4.2834">
        <ele>58.3</ele>
        <time>2014-11-24T13:53:49Z</time>
      </trkpt>
      <trkpt lat="43.79882" lon="4.28339">
        <ele>58.78</ele>
        <time>2014-11-24T13:53:53Z</time>
      </trkpt>
      <trkpt lat="43.79887" lon="4.28336">
        <ele>59.26</ele>
        <time>2014-11-24T13:53:58Z</time>
      </trkpt>
      <trkpt lat="43.79889" lon="4.28336">
        <ele>59.74</ele>
        <time>2014-11-24T13:54:00Z</time>
      </trkpt>
      <trkpt lat="43.799" lon="4.28329">
        <ele>62.14</ele>
        <time>2014-11-24T13:54:14Z</time>
      </trkpt>
      <trkpt lat="43.79911" lon="4.2833">
        <ele>60.22</ele>
        <time>2014-11-24T13:54:24Z</time>
      </trkpt>
      <trkpt lat="43.79914" lon="4.2833">
        <ele>59.74</ele>
        <time>2014-11-24T13:54:27Z</time>
      </trkpt>
      <trkpt lat="43.79927" lon="4.28329">
        <ele>59.26</ele>
        <time>2014-11-24T13:54:39Z</time>
      </trkpt>
      <trkpt lat="43.7994" lon="4.28327">
        <ele>59.26</ele>
        <time>2014-11-24T13:54:52Z</time>
      </trkpt>
      <trkpt lat="43.79954" lon="4.28324">
        <ele>58.3</ele>
        <time>2014-11-24T13:55:04Z</time>
      </trkpt>
      <trkpt lat="43.79964" lon="4.28329">
        <ele>56.86</ele>
        <time>2014-11-24T13:55:15Z</time>
      </trkpt>
      <trkpt lat="43.79978" lon="4.28328">
        <ele>58.3</ele>
        <time>2014-11-24T13:55:27Z</time>
      </trkpt>
      <trkpt lat="43.79987" lon="4.28329">
        <ele>58.78</ele>
        <time>2014-11-24T13:55:37Z</time>
      </trkpt>
      <trkpt lat="43.80001" lon="4.28322">
        <ele>62.14</ele>
        <time>2014-11-24T13:55:49Z</time>
      </trkpt>
      <trkpt lat="43.80012" lon="4.28321">
        <ele>65.03</ele>
        <time>2014-11-24T13:56:01Z</time>
      </trkpt>
      <trkpt lat="43.80021" lon="4.2832">
        <ele>63.1</ele>
        <time>2014-11-24T13:56:12Z</time>
      </trkpt>
      <trkpt lat="43.80028" lon="4.28319">
        <ele>62.62</ele>
        <time>2014-11-24T13:56:19Z</time>
      </trkpt>
      <trkpt lat="43.80038" lon="4.28321">
        <ele>64.55</ele>
        <time>2014-11-24T13:56:34Z</time>
      </trkpt>
      <trkpt lat="43.80045" lon="4.28324">
        <ele>65.03</ele>
        <time>2014-11-24T13:56:48Z</time>
      </trkpt>
      <trkpt lat="43.80046" lon="4.28323">
        <ele>65.03</ele>
        <time>2014-11-24T13:56:49Z</time>
      </trkpt>
      <trkpt lat="43.80056" lon="4.28321">
        <ele>64.55</ele>
        <time>2014-11-24T13:57:02Z</time>
      </trkpt>
      <trkpt lat="43.80068" lon="4.28322">
        <ele>65.03</ele>
        <time>2014-11-24T13:57:13Z</time>
      </trkpt>
      <trkpt lat="43.80077" lon="4.28322">
        <ele>65.99</ele>
        <time>2014-11-24T13:57:22Z</time>
      </trkpt>
      <trkpt lat="43.8009" lon="4.2832">
        <ele>65.51</ele>
        <time>2014-11-24T13:57:35Z</time>
      </trkpt>
      <trkpt lat="43.80096" lon="4.28322">
        <ele>65.03</ele>
        <time>2014-11-24T13:57:42Z</time>
      </trkpt>
      <trkpt lat="43.80108" lon="4.28319">
        <ele>66.95</ele>
        <time>2014-11-24T13:57:55Z</time>
      </trkpt>
      <trkpt lat="43.80118" lon="4.28321">
        <ele>68.39</ele>
        <time>2014-11-24T13:58:09Z</time>
      </trkpt>
      <trkpt lat="43.80122" lon="4.28322">
        <ele>72.24</ele>
        <time>2014-11-24T13:58:30Z</time>
      </trkpt>
      <trkpt lat="43.80125" lon="4.28324">
        <ele>72.72</ele>
        <time>2014-11-24T13:58:34Z</time>
      </trkpt>
      <trkpt lat="43.80135" lon="4.28325">
        <ele>73.2</ele>
        <time>2014-11-24T13:58:47Z</time>
      </trkpt>
      <trkpt lat="43.80145" lon="4.28331">
        <ele>72.72</ele>
        <time>2014-11-24T13:58:58Z</time>
      </trkpt>
      <trkpt lat="43.80146" lon="4.28333">
        <ele>72.72</ele>
        <time>2014-11-24T13:58:59Z</time>
      </trkpt>
      <trkpt lat="43.80156" lon="4.28341">
        <ele>74.16</ele>
        <time>2014-11-24T13:59:13Z</time>
      </trkpt>
      <trkpt lat="43.80162" lon="4.28349">
        <ele>74.16</ele>
        <time>2014-11-24T13:59:24Z</time>
      </trkpt>
      <trkpt lat="43.80163" lon="4.28359">
        <ele>76.56</ele>
        <time>2014-11-24T13:59:42Z</time>
      </trkpt>
      <trkpt lat="43.8016" lon="4.28366">
        <ele>77.04</ele>
        <time>2014-11-24T13:59:54Z</time>
      </trkpt>
      <trkpt lat="43.80158" lon="4.28374">
        <ele>77.52</ele>
        <time>2014-11-24T14:00:06Z</time>
      </trkpt>
      <trkpt lat="43.80153" lon="4.28382">
        <ele>78.97</ele>
        <time>2014-11-24T14:00:18Z</time>
      </trkpt>
      <trkpt lat="43.80149" lon="4.28391">
        <ele>81.37</ele>
        <time>2014-11-24T14:00:30Z</time>
      </trkpt>
      <trkpt lat="43.80148" lon="4.28392">
        <ele>80.41</ele>
        <time>2014-11-24T14:00:46Z</time>
      </trkpt>
      <trkpt lat="43.80148" lon="4.28392">
        <ele>82.81</ele>
        <time>2014-11-24T14:01:07Z</time>
      </trkpt>
      <trkpt lat="43.80146" lon="4.28393">
        <ele>82.81</ele>
        <time>2014-11-24T14:01:25Z</time>
      </trkpt>
      <trkpt lat="43.80149" lon="4.28393">
        <ele>80.89</ele>
        <time>2014-11-24T14:01:46Z</time>
      </trkpt>
      <trkpt lat="43.80148" lon="4.28396">
        <ele>81.85</ele>
        <time>2014-11-24T14:02:14Z</time>
      </trkpt>
      <trkpt lat="43.80145" lon="4.28401">
        <ele>83.29</ele>
        <time>2014-11-24T14:02:48Z</time>
      </trkpt>
      <trkpt lat="43.80142" lon="4.28401">
        <ele>82.81</ele>
        <time>2014-11-24T14:02:55Z</time>
      </trkpt>
      <trkpt lat="43.80135" lon="4.28409">
        <ele>84.25</ele>
        <time>2014-11-24T14:03:06Z</time>
      </trkpt>
      <trkpt lat="43.80127" lon="4.2842">
        <ele>83.77</ele>
        <time>2014-11-24T14:03:19Z</time>
      </trkpt>
      <trkpt lat="43.80124" lon="4.28427">
        <ele>84.73</ele>
        <time>2014-11-24T14:03:26Z</time>
      </trkpt>
      <trkpt lat="43.80122" lon="4.28437">
        <ele>85.69</ele>
        <time>2014-11-24T14:03:37Z</time>
      </trkpt>
      <trkpt lat="43.80115" lon="4.28449">
        <ele>84.25</ele>
        <time>2014-11-24T14:03:51Z</time>
      </trkpt>
      <trkpt lat="43.8011" lon="4.28453">
        <ele>83.77</ele>
        <time>2014-11-24T14:03:59Z</time>
      </trkpt>
      <trkpt lat="43.80099" lon="4.28461">
        <ele>83.77</ele>
        <time>2014-11-24T14:04:13Z</time>
      </trkpt>
      <trkpt lat="43.8009" lon="4.28467">
        <ele>81.37</ele>
        <time>2014-11-24T14:04:25Z</time>
      </trkpt>
      <trkpt lat="43.8008" lon="4.28479">
        <ele>82.33</ele>
        <time>2014-11-24T14:04:35Z</time>
      </trkpt>
      <trkpt lat="43.80078" lon="4.28484">
        <ele>82.33</ele>
        <time>2014-11-24T14:04:39Z</time>
      </trkpt>
      <trkpt lat="43.80076" lon="4.28487">
        <ele>83.29</ele>
        <time>2014-11-24T14:04:41Z</time>
      </trkpt>
      <trkpt lat="43.80067" lon="4.28501">
        <ele>83.77</ele>
        <time>2014-11-24T14:04:53Z</time>
      </trkpt>
      <trkpt lat="43.8006" lon="4.28513">
        <ele>84.25</ele>
        <time>2014-11-24T14:05:04Z</time>
      </trkpt>
      <trkpt lat="43.80056" lon="4.28525">
        <ele>82.81</ele>
        <time>2014-11-24T14:05:15Z</time>
      </trkpt>
      <trkpt lat="43.80055" lon="4.28526">
        <ele>82.81</ele>
        <time>2014-11-24T14:05:17Z</time>
      </trkpt>
      <trkpt lat="43.80053" lon="4.28542">
        <ele>81.85</ele>
        <time>2014-11-24T14:05:31Z</time>
      </trkpt>
      <trkpt lat="43.8006" lon="4.28556">
        <ele>79.45</ele>
        <time>2014-11-24T14:05:43Z</time>
      </trkpt>
      <trkpt lat="43.80068" lon="4.28572">
        <ele>76.56</ele>
        <time>2014-11-24T14:05:57Z</time>
      </trkpt>
      <trkpt lat="43.80077" lon="4.2859">
        <ele>77.04</ele>
        <time>2014-11-24T14:06:10Z</time>
      </trkpt>
      <trkpt lat="43.80079" lon="4.28602">
        <ele>78.48</ele>
        <time>2014-11-24T14:06:18Z</time>
      </trkpt>
      <trkpt lat="43.80084" lon="4.2862">
        <ele>78.48</ele>
        <time>2014-11-24T14:06:30Z</time>
      </trkpt>
      <trkpt lat="43.80089" lon="4.28634">
        <ele>77.04</ele>
        <time>2014-11-24T14:06:41Z</time>
      </trkpt>
      <trkpt lat="43.80091" lon="4.28637">
        <ele>76.08</ele>
        <time>2014-11-24T14:06:45Z</time>
      </trkpt>
      <trkpt lat="43.80097" lon="4.28654">
        <ele>75.12</ele>
        <time>2014-11-24T14:06:57Z</time>
      </trkpt>
      <trkpt lat="43.80102" lon="4.28669">
        <ele>73.68</ele>
        <time>2014-11-24T14:07:10Z</time>
      </trkpt>
      <trkpt lat="43.80106" lon="4.28685">
        <ele>72.72</ele>
        <time>2014-11-24T14:07:21Z</time>
      </trkpt>
      <trkpt lat="43.80112" lon="4.287">
        <ele>70.31</ele>
        <time>2014-11-24T14:07:32Z</time>
      </trkpt>
      <trkpt lat="43.80119" lon="4.28716">
        <ele>66.95</ele>
        <time>2014-11-24T14:07:45Z</time>
      </trkpt>
      <trkpt lat="43.80124" lon="4.28728">
        <ele>68.39</ele>
        <time>2014-11-24T14:07:54Z</time>
      </trkpt>
      <trkpt lat="43.80127" lon="4.28732">
        <ele>68.39</ele>
        <time>2014-11-24T14:07:59Z</time>
      </trkpt>
      <trkpt lat="43.80129" lon="4.28745">
        <ele>69.35</ele>
        <time>2014-11-24T14:08:06Z</time>
      </trkpt>
      <trkpt lat="43.80133" lon="4.28765">
        <ele>70.79</ele>
        <time>2014-11-24T14:08:18Z</time>
      </trkpt>
      <trkpt lat="43.80135" lon="4.28773">
        <ele>71.27</ele>
        <time>2014-11-24T14:08:23Z</time>
      </trkpt>
      <trkpt lat="43.80137" lon="4.2878">
        <ele>71.27</ele>
        <time>2014-11-24T14:08:28Z</time>
      </trkpt>
      <trkpt lat="43.80143" lon="4.28797">
        <ele>71.76</ele>
        <time>2014-11-24T14:08:40Z</time>
      </trkpt>
      <trkpt lat="43.80145" lon="4.28805">
        <ele>71.27</ele>
        <time>2014-11-24T14:08:46Z</time>
      </trkpt>
      <trkpt lat="43.80147" lon="4.28811">
        <ele>70.79</ele>
        <time>2014-11-24T14:08:50Z</time>
      </trkpt>
      <trkpt lat="43.80159" lon="4.2882">
        <ele>69.35</ele>
        <time>2014-11-24T14:09:05Z</time>
      </trkpt>
      <trkpt lat="43.80172" lon="4.28824">
        <ele>70.79</ele>
        <time>2014-11-24T14:09:18Z</time>
      </trkpt>
      <trkpt lat="43.80175" lon="4.28828">
        <ele>73.68</ele>
        <time>2014-11-24T14:09:36Z</time>
      </trkpt>
      <trkpt lat="43.80178" lon="4.28827">
        <ele>74.16</ele>
        <time>2014-11-24T14:09:54Z</time>
      </trkpt>
      <trkpt lat="43.80177" lon="4.28832">
        <ele>77.52</ele>
        <time>2014-11-24T14:10:21Z</time>
      </trkpt>
      <trkpt lat="43.80174" lon="4.28829">
        <ele>82.33</ele>
        <time>2014-11-24T14:10:48Z</time>
      </trkpt>
      <trkpt lat="43.80175" lon="4.28831">
        <ele>87.14</ele>
        <time>2014-11-24T14:11:19Z</time>
      </trkpt>
      <trkpt lat="43.80169" lon="4.28829">
        <ele>91.46</ele>
        <time>2014-11-24T14:11:49Z</time>
      </trkpt>
      <trkpt lat="43.80171" lon="4.2883">
        <ele>88.1</ele>
        <time>2014-11-24T14:12:06Z</time>
      </trkpt>
      <trkpt lat="43.80171" lon="4.28829">
        <ele>87.62</ele>
        <time>2014-11-24T14:12:28Z</time>
      </trkpt>
      <trkpt lat="43.80171" lon="4.28829">
        <ele>89.06</ele>
        <time>2014-11-24T14:12:51Z</time>
      </trkpt>
      <trkpt lat="43.80175" lon="4.28822">
        <ele>85.69</ele>
        <time>2014-11-24T14:13:05Z</time>
      </trkpt>
      <trkpt lat="43.8018" lon="4.28811">
        <ele>84.25</ele>
        <time>2014-11-24T14:13:16Z</time>
      </trkpt>
      <trkpt lat="43.80187" lon="4.288">
        <ele>83.29</ele>
        <time>2014-11-24T14:13:28Z</time>
      </trkpt>
      <trkpt lat="43.8019" lon="4.28788">
        <ele>83.77</ele>
        <time>2014-11-24T14:13:39Z</time>
      </trkpt>
      <trkpt lat="43.80193" lon="4.28775">
        <ele>85.21</ele>
        <time>2014-11-24T14:13:49Z</time>
      </trkpt>
      <trkpt lat="43.80195" lon="4.28762">
        <ele>86.18</ele>
        <time>2014-11-24T14:13:59Z</time>
      </trkpt>
      <trkpt lat="43.80202" lon="4.2875">
        <ele>86.66</ele>
        <time>2014-11-24T14:14:09Z</time>
      </trkpt>
      <trkpt lat="43.8021" lon="4.28736">
        <ele>88.1</ele>
        <time>2014-11-24T14:14:21Z</time>
      </trkpt>
      <trkpt lat="43.8022" lon="4.28726">
        <ele>87.14</ele>
        <time>2014-11-24T14:14:32Z</time>
      </trkpt>
      <trkpt lat="43.80232" lon="4.28716">
        <ele>85.69</ele>
        <time>2014-11-24T14:14:44Z</time>
      </trkpt>
      <trkpt lat="43.80243" lon="4.28707">
        <ele>85.21</ele>
        <time>2014-11-24T14:14:56Z</time>
      </trkpt>
      <trkpt lat="43.80253" lon="4.28699">
        <ele>85.21</ele>
        <time>2014-11-24T14:15:07Z</time>
      </trkpt>
      <trkpt lat="43.80261" lon="4.28688">
        <ele>86.18</ele>
        <time>2014-11-24T14:15:17Z</time>
      </trkpt>
      <trkpt lat="43.80266" lon="4.28682">
        <ele>85.69</ele>
        <time>2014-11-24T14:15:23Z</time>
      </trkpt>
      <trkpt lat="43.80269" lon="4.28678">
        <ele>85.69</ele>
        <time>2014-11-24T14:15:27Z</time>
      </trkpt>
      <trkpt lat="43.80277" lon="4.28668">
        <ele>88.1</ele>
        <time>2014-11-24T14:15:37Z</time>
      </trkpt>
      <trkpt lat="43.80282" lon="4.28664">
        <ele>89.06</ele>
        <time>2014-11-24T14:15:43Z</time>
      </trkpt>
      <trkpt lat="43.80293" lon="4.28656">
        <ele>89.54</ele>
        <time>2014-11-24T14:15:54Z</time>
      </trkpt>
      <trkpt lat="43.80294" lon="4.28655">
        <ele>89.06</ele>
        <time>2014-11-24T14:15:55Z</time>
      </trkpt>
      <trkpt lat="43.80296" lon="4.28651">
        <ele>88.58</ele>
        <time>2014-11-24T14:15:59Z</time>
      </trkpt>
      <trkpt lat="43.80301" lon="4.28645">
        <ele>89.06</ele>
        <time>2014-11-24T14:16:05Z</time>
      </trkpt>
      <trkpt lat="43.80309" lon="4.28638">
        <ele>89.54</ele>
        <time>2014-11-24T14:16:12Z</time>
      </trkpt>
      <trkpt lat="43.80315" lon="4.28633">
        <ele>90.98</ele>
        <time>2014-11-24T14:16:18Z</time>
      </trkpt>
      <trkpt lat="43.8032" lon="4.28629">
        <ele>90.98</ele>
        <time>2014-11-24T14:16:23Z</time>
      </trkpt>
      <trkpt lat="43.80322" lon="4.28626">
        <ele>90.98</ele>
        <time>2014-11-24T14:16:26Z</time>
      </trkpt>
      <trkpt lat="43.80325" lon="4.28624">
        <ele>90.98</ele>
        <time>2014-11-24T14:16:29Z</time>
      </trkpt>
      <trkpt lat="43.80328" lon="4.28618">
        <ele>90.5</ele>
        <time>2014-11-24T14:16:35Z</time>
      </trkpt>
      <trkpt lat="43.80331" lon="4.28609">
        <ele>90.02</ele>
        <time>2014-11-24T14:16:41Z</time>
      </trkpt>
      <trkpt lat="43.80332" lon="4.28604">
        <ele>90.02</ele>
        <time>2014-11-24T14:16:45Z</time>
      </trkpt>
      <trkpt lat="43.80337" lon="4.28589">
        <ele>90.5</ele>
        <time>2014-11-24T14:16:56Z</time>
      </trkpt>
      <trkpt lat="43.80341" lon="4.28579">
        <ele>90.98</ele>
        <time>2014-11-24T14:17:03Z</time>
      </trkpt>
      <trkpt lat="43.80344" lon="4.28573">
        <ele>90.98</ele>
        <time>2014-11-24T14:17:08Z</time>
      </trkpt>
      <trkpt lat="43.80351" lon="4.28557">
        <ele>92.42</ele>
        <time>2014-11-24T14:17:20Z</time>
      </trkpt>
      <trkpt lat="43.80353" lon="4.28551">
        <ele>93.39</ele>
        <time>2014-11-24T14:17:24Z</time>
      </trkpt>
      <trkpt lat="43.80359" lon="4.28536">
        <ele>93.39</ele>
        <time>2014-11-24T14:17:36Z</time>
      </trkpt>
      <trkpt lat="43.80362" lon="4.28525">
        <ele>93.39</ele>
        <time>2014-11-24T14:17:44Z</time>
      </trkpt>
      <trkpt lat="43.80364" lon="4.2852">
        <ele>93.39</ele>
        <time>2014-11-24T14:17:55Z</time>
      </trkpt>
      <trkpt lat="43.80365" lon="4.28518">
        <ele>93.87</ele>
        <time>2014-11-24T14:18:04Z</time>
      </trkpt>
      <trkpt lat="43.80366" lon="4.28516">
        <ele>96.75</ele>
        <time>2014-11-24T14:18:18Z</time>
      </trkpt>
      <trkpt lat="43.80367" lon="4.28511">
        <ele>99.63</ele>
        <time>2014-11-24T14:18:54Z</time>
      </trkpt>
      <trkpt lat="43.80377" lon="4.28496">
        <ele>99.15</ele>
        <time>2014-11-24T14:19:15Z</time>
      </trkpt>
      <trkpt lat="43.80386" lon="4.28486">
        <ele>98.67</ele>
        <time>2014-11-24T14:19:28Z</time>
      </trkpt>
      <trkpt lat="43.80395" lon="4.28479">
        <ele>97.23</ele>
        <time>2014-11-24T14:19:38Z</time>
      </trkpt>
      <trkpt lat="43.80405" lon="4.28463">
        <ele>93.87</ele>
        <time>2014-11-24T14:19:54Z</time>
      </trkpt>
      <trkpt lat="43.80413" lon="4.28445">
        <ele>91.46</ele>
        <time>2014-11-24T14:20:07Z</time>
      </trkpt>
      <trkpt lat="43.80417" lon="4.28436">
        <ele>90.98</ele>
        <time>2014-11-24T14:20:20Z</time>
      </trkpt>
      <trkpt lat="43.80419" lon="4.28424">
        <ele>90.5</ele>
        <time>2014-11-24T14:20:32Z</time>
      </trkpt>
      <trkpt lat="43.80419" lon="4.28421">
        <ele>90.02</ele>
        <time>2014-11-24T14:20:34Z</time>
      </trkpt>
      <trkpt lat="43.80426" lon="4.28405">
        <ele>89.06</ele>
        <time>2014-11-24T14:20:46Z</time>
      </trkpt>
      <trkpt lat="43.8043" lon="4.28396">
        <ele>89.06</ele>
        <time>2014-11-24T14:20:53Z</time>
      </trkpt>
      <trkpt lat="43.80437" lon="4.28377">
        <ele>89.54</ele>
        <time>2014-11-24T14:21:06Z</time>
      </trkpt>
      <trkpt lat="43.80444" lon="4.28358">
        <ele>90.02</ele>
        <time>2014-11-24T14:21:18Z</time>
      </trkpt>
      <trkpt lat="43.8045" lon="4.28345">
        <ele>90.5</ele>
        <time>2014-11-24T14:21:29Z</time>
      </trkpt>
      <trkpt lat="43.80453" lon="4.28338">
        <ele>90.5</ele>
        <time>2014-11-24T14:21:34Z</time>
      </trkpt>
      <trkpt lat="43.80459" lon="4.28323">
        <ele>90.02</ele>
        <time>2014-11-24T14:21:45Z</time>
      </trkpt>
      <trkpt lat="43.80469" lon="4.28304">
        <ele>90.5</ele>
        <time>2014-11-24T14:22:00Z</time>
      </trkpt>
      <trkpt lat="43.80475" lon="4.28288">
        <ele>91.46</ele>
        <time>2014-11-24T14:22:12Z</time>
      </trkpt>
      <trkpt lat="43.80481" lon="4.28272">
        <ele>91.46</ele>
        <time>2014-11-24T14:22:25Z</time>
      </trkpt>
      <trkpt lat="43.80488" lon="4.28258">
        <ele>91.94</ele>
        <time>2014-11-24T14:22:36Z</time>
      </trkpt>
      <trkpt lat="43.80492" lon="4.28247">
        <ele>92.42</ele>
        <time>2014-11-24T14:22:43Z</time>
      </trkpt>
      <trkpt lat="43.80497" lon="4.2823">
        <ele>92.9</ele>
        <time>2014-11-24T14:22:56Z</time>
      </trkpt>
      <trkpt lat="43.80505" lon="4.2821">
        <ele>92.9</ele>
        <time>2014-11-24T14:23:11Z</time>
      </trkpt>
      <trkpt lat="43.80513" lon="4.28192">
        <ele>92.9</ele>
        <time>2014-11-24T14:23:25Z</time>
      </trkpt>
      <trkpt lat="43.80521" lon="4.28177">
        <ele>92.9</ele>
        <time>2014-11-24T14:23:39Z</time>
      </trkpt>
      <trkpt lat="43.80531" lon="4.28164">
        <ele>93.87</ele>
        <time>2014-11-24T14:23:52Z</time>
      </trkpt>
      <trkpt lat="43.80535" lon="4.28159">
        <ele>93.87</ele>
        <time>2014-11-24T14:23:58Z</time>
      </trkpt>
      <trkpt lat="43.80549" lon="4.28151">
        <ele>93.87</ele>
        <time>2014-11-24T14:24:11Z</time>
      </trkpt>
      <trkpt lat="43.80565" lon="4.28146">
        <ele>93.87</ele>
        <time>2014-11-24T14:24:25Z</time>
      </trkpt>
      <trkpt lat="43.80569" lon="4.28144">
        <ele>94.35</ele>
        <time>2014-11-24T14:24:29Z</time>
      </trkpt>
      <trkpt lat="43.80583" lon="4.28133">
        <ele>96.27</ele>
        <time>2014-11-24T14:24:43Z</time>
      </trkpt>
      <trkpt lat="43.80596" lon="4.28122">
        <ele>97.71</ele>
        <time>2014-11-24T14:24:57Z</time>
      </trkpt>
      <trkpt lat="43.80607" lon="4.28108">
        <ele>97.71</ele>
        <time>2014-11-24T14:25:09Z</time>
      </trkpt>
      <trkpt lat="43.80609" lon="4.28106">
        <ele>97.71</ele>
        <time>2014-11-24T14:25:12Z</time>
      </trkpt>
      <trkpt lat="43.80621" lon="4.28091">
        <ele>95.31</ele>
        <time>2014-11-24T14:25:27Z</time>
      </trkpt>
      <trkpt lat="43.80632" lon="4.28073">
        <ele>94.35</ele>
        <time>2014-11-24T14:25:42Z</time>
      </trkpt>
      <trkpt lat="43.80641" lon="4.28052">
        <ele>94.35</ele>
        <time>2014-11-24T14:25:58Z</time>
      </trkpt>
      <trkpt lat="43.80649" lon="4.28034">
        <ele>92.42</ele>
        <time>2014-11-24T14:26:13Z</time>
      </trkpt>
      <trkpt lat="43.80655" lon="4.28026">
        <ele>93.87</ele>
        <time>2014-11-24T14:26:20Z</time>
      </trkpt>
      <trkpt lat="43.80669" lon="4.28012">
        <ele>96.27</ele>
        <time>2014-11-24T14:26:35Z</time>
      </trkpt>
      <trkpt lat="43.80682" lon="4.28003">
        <ele>97.23</ele>
        <time>2014-11-24T14:26:47Z</time>
      </trkpt>
      <trkpt lat="43.80694" lon="4.27995">
        <ele>97.71</ele>
        <time>2014-11-24T14:26:59Z</time>
      </trkpt>
      <trkpt lat="43.80706" lon="4.27984">
        <ele>98.19</ele>
        <time>2014-11-24T14:27:11Z</time>
      </trkpt>
      <trkpt lat="43.80719" lon="4.27972">
        <ele>98.67</ele>
        <time>2014-11-24T14:27:24Z</time>
      </trkpt>
      <trkpt lat="43.80723" lon="4.27969">
        <ele>99.15</ele>
        <time>2014-11-24T14:27:29Z</time>
      </trkpt>
      <trkpt lat="43.80738" lon="4.27957">
        <ele>99.63</ele>
        <time>2014-11-24T14:27:44Z</time>
      </trkpt>
      <trkpt lat="43.80755" lon="4.27947">
        <ele>99.63</ele>
        <time>2014-11-24T14:28:00Z</time>
      </trkpt>
      <trkpt lat="43.8077" lon="4.27933">
        <ele>100.11</ele>
        <time>2014-11-24T14:28:16Z</time>
      </trkpt>
      <trkpt lat="43.80787" lon="4.2792">
        <ele>102.52</ele>
        <time>2014-11-24T14:28:33Z</time>
      </trkpt>
      <trkpt lat="43.80803" lon="4.27914">
        <ele>102.52</ele>
        <time>2014-11-24T14:28:47Z</time>
      </trkpt>
      <trkpt lat="43.80821" lon="4.27912">
        <ele>103</ele>
        <time>2014-11-24T14:29:02Z</time>
      </trkpt>
      <trkpt lat="43.80835" lon="4.2791">
        <ele>102.52</ele>
        <time>2014-11-24T14:29:16Z</time>
      </trkpt>
      <trkpt lat="43.80838" lon="4.2791">
        <ele>101.56</ele>
        <time>2014-11-24T14:29:35Z</time>
      </trkpt>
      <trkpt lat="43.80841" lon="4.27909">
        <ele>102.04</ele>
        <time>2014-11-24T14:29:51Z</time>
      </trkpt>
      <trkpt lat="43.80843" lon="4.2791">
        <ele>102.52</ele>
        <time>2014-11-24T14:30:14Z</time>
      </trkpt>
      <trkpt lat="43.80844" lon="4.27909">
        <ele>103.48</ele>
        <time>2014-11-24T14:30:34Z</time>
      </trkpt>
      <trkpt lat="43.80843" lon="4.27909">
        <ele>99.63</ele>
        <time>2014-11-24T14:31:03Z</time>
      </trkpt>
      <trkpt lat="43.80842" lon="4.27909">
        <ele>100.6</ele>
        <time>2014-11-24T14:31:27Z</time>
      </trkpt>
      <trkpt lat="43.8084" lon="4.27907">
        <ele>101.56</ele>
        <time>2014-11-24T14:31:56Z</time>
      </trkpt>
      <trkpt lat="43.80841" lon="4.27909">
        <ele>101.56</ele>
        <time>2014-11-24T14:32:28Z</time>
      </trkpt>
      <trkpt lat="43.80842" lon="4.2791">
        <ele>103.96</ele>
        <time>2014-11-24T14:32:50Z</time>
      </trkpt>
      <trkpt lat="43.80842" lon="4.2791">
        <ele>103</ele>
        <time>2014-11-24T14:33:15Z</time>
      </trkpt>
      <trkpt lat="43.80842" lon="4.2791">
        <ele>100.11</ele>
        <time>2014-11-24T14:33:48Z</time>
      </trkpt>
      <trkpt lat="43.8084" lon="4.27909">
        <ele>101.08</ele>
        <time>2014-11-24T14:34:21Z</time>
      </trkpt>
      <trkpt lat="43.80841" lon="4.2791">
        <ele>102.04</ele>
        <time>2014-11-24T14:34:49Z</time>
      </trkpt>
      <trkpt lat="43.80841" lon="4.27908">
        <ele>102.52</ele>
        <time>2014-11-24T14:35:15Z</time>
      </trkpt>
      <trkpt lat="43.80842" lon="4.27908">
        <ele>103</ele>
        <time>2014-11-24T14:35:35Z</time>
      </trkpt>
      <trkpt lat="43.80842" lon="4.2791">
        <ele>102.52</ele>
        <time>2014-11-24T14:35:57Z</time>
      </trkpt>
      <trkpt lat="43.80841" lon="4.27909">
        <ele>102.04</ele>
        <time>2014-11-24T14:36:23Z</time>
      </trkpt>
      <trkpt lat="43.80841" lon="4.27909">
        <ele>103</ele>
        <time>2014-11-24T14:36:54Z</time>
      </trkpt>
      <trkpt lat="43.80842" lon="4.27911">
        <ele>101.56</ele>
        <time>2014-11-24T14:37:24Z</time>
      </trkpt>
      <trkpt lat="43.80844" lon="4.2791">
        <ele>101.56</ele>
        <time>2014-11-24T14:37:54Z</time>
      </trkpt>
      <trkpt lat="43.80843" lon="4.27908">
        <ele>101.56</ele>
        <time>2014-11-24T14:38:22Z</time>
      </trkpt>
      <trkpt lat="43.80843" lon="4.27907">
        <ele>100.11</ele>
        <time>2014-11-24T14:38:50Z</time>
      </trkpt>
      <trkpt lat="43.80845" lon="4.27911">
        <ele>100.11</ele>
        <time>2014-11-24T14:39:09Z</time>
      </trkpt>
      <trkpt lat="43.80846" lon="4.27911">
        <ele>100.6</ele>
        <time>2014-11-24T14:39:45Z</time>
      </trkpt>
      <trkpt lat="43.80845" lon="4.27916">
        <ele>101.08</ele>
        <time>2014-11-24T14:40:16Z</time>
      </trkpt>
      <trkpt lat="43.80842" lon="4.27927">
        <ele>101.08</ele>
        <time>2014-11-24T14:40:26Z</time>
      </trkpt>
      <trkpt lat="43.80841" lon="4.27941">
        <ele>101.08</ele>
        <time>2014-11-24T14:40:38Z</time>
      </trkpt>
      <trkpt lat="43.80841" lon="4.27963">
        <ele>100.6</ele>
        <time>2014-11-24T14:40:53Z</time>
      </trkpt>
      <trkpt lat="43.80841" lon="4.27982">
        <ele>101.08</ele>
        <time>2014-11-24T14:41:06Z</time>
      </trkpt>
      <trkpt lat="43.80841" lon="4.27985">
        <ele>101.08</ele>
        <time>2014-11-24T14:41:08Z</time>
      </trkpt>
      <trkpt lat="43.80841" lon="4.28005">
        <ele>100.11</ele>
        <time>2014-11-24T14:41:22Z</time>
      </trkpt>
      <trkpt lat="43.80842" lon="4.28025">
        <ele>98.67</ele>
        <time>2014-11-24T14:41:36Z</time>
      </trkpt>
      <trkpt lat="43.80843" lon="4.28047">
        <ele>98.67</ele>
        <time>2014-11-24T14:41:51Z</time>
      </trkpt>
      <trkpt lat="43.80846" lon="4.28071">
        <ele>99.15</ele>
        <time>2014-11-24T14:42:06Z</time>
      </trkpt>
      <trkpt lat="43.80847" lon="4.28092">
        <ele>100.11</ele>
        <time>2014-11-24T14:42:19Z</time>
      </trkpt>
      <trkpt lat="43.80848" lon="4.28111">
        <ele>100.6</ele>
        <time>2014-11-24T14:42:32Z</time>
      </trkpt>
      <trkpt lat="43.80849" lon="4.28132">
        <ele>99.63</ele>
        <time>2014-11-24T14:42:45Z</time>
      </trkpt>
      <trkpt lat="43.8085" lon="4.28144">
        <ele>99.15</ele>
        <time>2014-11-24T14:42:53Z</time>
      </trkpt>
      <trkpt lat="43.80851" lon="4.28163">
        <ele>98.67</ele>
        <time>2014-11-24T14:43:05Z</time>
      </trkpt>
      <trkpt lat="43.80852" lon="4.28186">
        <ele>98.19</ele>
        <time>2014-11-24T14:43:20Z</time>
      </trkpt>
      <trkpt lat="43.80853" lon="4.28211">
        <ele>97.23</ele>
        <time>2014-11-24T14:43:35Z</time>
      </trkpt>
      <trkpt lat="43.80852" lon="4.28232">
        <ele>96.75</ele>
        <time>2014-11-24T14:43:48Z</time>
      </trkpt>
      <trkpt lat="43.80851" lon="4.28252">
        <ele>96.27</ele>
        <time>2014-11-24T14:44:01Z</time>
      </trkpt>
      <trkpt lat="43.80849" lon="4.28273">
        <ele>96.27</ele>
        <time>2014-11-24T14:44:15Z</time>
      </trkpt>
      <trkpt lat="43.80847" lon="4.2829">
        <ele>96.27</ele>
        <time>2014-11-24T14:44:26Z</time>
      </trkpt>
      <trkpt lat="43.80844" lon="4.28315">
        <ele>97.23</ele>
        <time>2014-11-24T14:44:42Z</time>
      </trkpt>
      <trkpt lat="43.80839" lon="4.2834">
        <ele>96.75</ele>
        <time>2014-11-24T14:44:58Z</time>
      </trkpt>
      <trkpt lat="43.80833" lon="4.28358">
        <ele>94.83</ele>
        <time>2014-11-24T14:45:11Z</time>
      </trkpt>
      <trkpt lat="43.80831" lon="4.28376">
        <ele>92.9</ele>
        <time>2014-11-24T14:45:24Z</time>
      </trkpt>
      <trkpt lat="43.80831" lon="4.28382">
        <ele>92.42</ele>
        <time>2014-11-24T14:45:28Z</time>
      </trkpt>
      <trkpt lat="43.80831" lon="4.28393">
        <ele>91.94</ele>
        <time>2014-11-24T14:45:36Z</time>
      </trkpt>
      <trkpt lat="43.8083" lon="4.28398">
        <ele>91.46</ele>
        <time>2014-11-24T14:45:40Z</time>
      </trkpt>
      <trkpt lat="43.80828" lon="4.28407">
        <ele>91.46</ele>
        <time>2014-11-24T14:45:46Z</time>
      </trkpt>
      <trkpt lat="43.80829" lon="4.28421">
        <ele>90.98</ele>
        <time>2014-11-24T14:45:55Z</time>
      </trkpt>
      <trkpt lat="43.80826" lon="4.28446">
        <ele>91.46</ele>
        <time>2014-11-24T14:46:11Z</time>
      </trkpt>
      <trkpt lat="43.80825" lon="4.28452">
        <ele>90.98</ele>
        <time>2014-11-24T14:46:15Z</time>
      </trkpt>
      <trkpt lat="43.80826" lon="4.28455">
        <ele>90.98</ele>
        <time>2014-11-24T14:46:17Z</time>
      </trkpt>
      <trkpt lat="43.80827" lon="4.28479">
        <ele>91.94</ele>
        <time>2014-11-24T14:46:32Z</time>
      </trkpt>
      <trkpt lat="43.80823" lon="4.28501">
        <ele>91.94</ele>
        <time>2014-11-24T14:46:45Z</time>
      </trkpt>
      <trkpt lat="43.80813" lon="4.2852">
        <ele>91.46</ele>
        <time>2014-11-24T14:47:00Z</time>
      </trkpt>
      <trkpt lat="43.80807" lon="4.28546">
        <ele>91.94</ele>
        <time>2014-11-24T14:47:18Z</time>
      </trkpt>
      <trkpt lat="43.80804" lon="4.28569">
        <ele>92.42</ele>
        <time>2014-11-24T14:47:32Z</time>
      </trkpt>
      <trkpt lat="43.80804" lon="4.28575">
        <ele>92.42</ele>
        <time>2014-11-24T14:47:36Z</time>
      </trkpt>
      <trkpt lat="43.80807" lon="4.28598">
        <ele>92.9</ele>
        <time>2014-11-24T14:47:51Z</time>
      </trkpt>
      <trkpt lat="43.80812" lon="4.28622">
        <ele>94.35</ele>
        <time>2014-11-24T14:48:06Z</time>
      </trkpt>
      <trkpt lat="43.80815" lon="4.28631">
        <ele>95.31</ele>
        <time>2014-11-24T14:48:12Z</time>
      </trkpt>
      <trkpt lat="43.80821" lon="4.28656">
        <ele>95.31</ele>
        <time>2014-11-24T14:48:29Z</time>
      </trkpt>
      <trkpt lat="43.80822" lon="4.28661">
        <ele>95.79</ele>
        <time>2014-11-24T14:48:32Z</time>
      </trkpt>
      <trkpt lat="43.80828" lon="4.28684">
        <ele>96.75</ele>
        <time>2014-11-24T14:48:48Z</time>
      </trkpt>
      <trkpt lat="43.80829" lon="4.28698">
        <ele>96.27</ele>
        <time>2014-11-24T14:48:57Z</time>
      </trkpt>
      <trkpt lat="43.80836" lon="4.28723">
        <ele>98.19</ele>
        <time>2014-11-24T14:49:13Z</time>
      </trkpt>
      <trkpt lat="43.80842" lon="4.28742">
        <ele>97.71</ele>
        <time>2014-11-24T14:49:27Z</time>
      </trkpt>
      <trkpt lat="43.80846" lon="4.28754">
        <ele>96.75</ele>
        <time>2014-11-24T14:49:42Z</time>
      </trkpt>
      <trkpt lat="43.80848" lon="4.28769">
        <ele>95.31</ele>
        <time>2014-11-24T14:49:54Z</time>
      </trkpt>
      <trkpt lat="43.80848" lon="4.28771">
        <ele>94.83</ele>
        <time>2014-11-24T14:49:56Z</time>
      </trkpt>
      <trkpt lat="43.80848" lon="4.28778">
        <ele>91.94</ele>
        <time>2014-11-24T14:50:09Z</time>
      </trkpt>
      <trkpt lat="43.80847" lon="4.28778">
        <ele>90.02</ele>
        <time>2014-11-24T14:50:42Z</time>
      </trkpt>
      <trkpt lat="43.80848" lon="4.28773">
        <ele>90.02</ele>
        <time>2014-11-24T14:50:58Z</time>
      </trkpt>
      <trkpt lat="43.80843" lon="4.28763">
        <ele>90.02</ele>
        <time>2014-11-24T14:51:13Z</time>
      </trkpt>
      <trkpt lat="43.80842" lon="4.28753">
        <ele>89.54</ele>
        <time>2014-11-24T14:51:29Z</time>
      </trkpt>
      <trkpt lat="43.80842" lon="4.28752">
        <ele>90.5</ele>
        <time>2014-11-24T14:51:59Z</time>
      </trkpt>
      <trkpt lat="43.80841" lon="4.28757">
        <ele>93.87</ele>
        <time>2014-11-24T14:52:32Z</time>
      </trkpt>
      <trkpt lat="43.80827" lon="4.28776">
        <ele>94.35</ele>
        <time>2014-11-24T14:52:50Z</time>
      </trkpt>
      <trkpt lat="43.80813" lon="4.28795">
        <ele>94.35</ele>
        <time>2014-11-24T14:53:08Z</time>
      </trkpt>
      <trkpt lat="43.80805" lon="4.28798">
        <ele>93.87</ele>
        <time>2014-11-24T14:53:15Z</time>
      </trkpt>
      <trkpt lat="43.80784" lon="4.2881">
        <ele>95.79</ele>
        <time>2014-11-24T14:53:35Z</time>
      </trkpt>
      <trkpt lat="43.80768" lon="4.28824">
        <ele>96.27</ele>
        <time>2014-11-24T14:53:51Z</time>
      </trkpt>
      <trkpt lat="43.8075" lon="4.28838">
        <ele>96.27</ele>
        <time>2014-11-24T14:54:09Z</time>
      </trkpt>
      <trkpt lat="43.80731" lon="4.28854">
        <ele>97.71</ele>
        <time>2014-11-24T14:54:26Z</time>
      </trkpt>
      <trkpt lat="43.80717" lon="4.28873">
        <ele>98.67</ele>
        <time>2014-11-24T14:54:44Z</time>
      </trkpt>
      <trkpt lat="43.80698" lon="4.28889">
        <ele>97.71</ele>
        <time>2014-11-24T14:55:02Z</time>
      </trkpt>
      <trkpt lat="43.80677" lon="4.28901">
        <ele>94.83</ele>
        <time>2014-11-24T14:55:21Z</time>
      </trkpt>
      <trkpt lat="43.80656" lon="4.28905">
        <ele>94.35</ele>
        <time>2014-11-24T14:55:39Z</time>
      </trkpt>
      <trkpt lat="43.80646" lon="4.2891">
        <ele>93.87</ele>
        <time>2014-11-24T14:55:48Z</time>
      </trkpt>
      <trkpt lat="43.80621" lon="4.28928">
        <ele>92.42</ele>
        <time>2014-11-24T14:56:12Z</time>
      </trkpt>
      <trkpt lat="43.80605" lon="4.28945">
        <ele>91.94</ele>
        <time>2014-11-24T14:56:28Z</time>
      </trkpt>
      <trkpt lat="43.80588" lon="4.28961">
        <ele>91.46</ele>
        <time>2014-11-24T14:56:44Z</time>
      </trkpt>
      <trkpt lat="43.80573" lon="4.28975">
        <ele>89.54</ele>
        <time>2014-11-24T14:57:01Z</time>
      </trkpt>
      <trkpt lat="43.80552" lon="4.28993">
        <ele>87.62</ele>
        <time>2014-11-24T14:57:22Z</time>
      </trkpt>
      <trkpt lat="43.8053" lon="4.29004">
        <ele>86.18</ele>
        <time>2014-11-24T14:57:43Z</time>
      </trkpt>
      <trkpt lat="43.8051" lon="4.29013">
        <ele>82.81</ele>
        <time>2014-11-24T14:58:02Z</time>
      </trkpt>
      <trkpt lat="43.80493" lon="4.29022">
        <ele>82.33</ele>
        <time>2014-11-24T14:58:17Z</time>
      </trkpt>
      <trkpt lat="43.80475" lon="4.29038">
        <ele>81.37</ele>
        <time>2014-11-24T14:58:37Z</time>
      </trkpt>
      <trkpt lat="43.80463" lon="4.2905">
        <ele>79.93</ele>
        <time>2014-11-24T14:58:57Z</time>
      </trkpt>
      <trkpt lat="43.80464" lon="4.29063">
        <ele>78.97</ele>
        <time>2014-11-24T14:59:20Z</time>
      </trkpt>
      <trkpt lat="43.80455" lon="4.29089">
        <ele>78</ele>
        <time>2014-11-24T14:59:43Z</time>
      </trkpt>
      <trkpt lat="43.80444" lon="4.29107">
        <ele>76.08</ele>
        <time>2014-11-24T15:00:00Z</time>
      </trkpt>
      <trkpt lat="43.80435" lon="4.29125">
        <ele>72.24</ele>
        <time>2014-11-24T15:00:17Z</time>
      </trkpt>
      <trkpt lat="43.80422" lon="4.29148">
        <ele>71.27</ele>
        <time>2014-11-24T15:00:35Z</time>
      </trkpt>
      <trkpt lat="43.8041" lon="4.29169">
        <ele>68.39</ele>
        <time>2014-11-24T15:00:52Z</time>
      </trkpt>
      <trkpt lat="43.80399" lon="4.29189">
        <ele>66.95</ele>
        <time>2014-11-24T15:01:09Z</time>
      </trkpt>
      <trkpt lat="43.80388" lon="4.29211">
        <ele>64.07</ele>
        <time>2014-11-24T15:01:26Z</time>
      </trkpt>
      <trkpt lat="43.80372" lon="4.29231">
        <ele>61.66</ele>
        <time>2014-11-24T15:01:44Z</time>
      </trkpt>
      <trkpt lat="43.8036" lon="4.2925">
        <ele>60.22</ele>
        <time>2014-11-24T15:02:00Z</time>
      </trkpt>
      <trkpt lat="43.8035" lon="4.29268">
        <ele>57.34</ele>
        <time>2014-11-24T15:02:15Z</time>
      </trkpt>
      <trkpt lat="43.80337" lon="4.29288">
        <ele>56.37</ele>
        <time>2014-11-24T15:02:32Z</time>
      </trkpt>
      <trkpt lat="43.80325" lon="4.29305">
        <ele>54.93</ele>
        <time>2014-11-24T15:02:47Z</time>
      </trkpt>
      <trkpt lat="43.80323" lon="4.29309">
        <ele>57.34</ele>
        <time>2014-11-24T15:03:04Z</time>
      </trkpt>
      <trkpt lat="43.80322" lon="4.29312">
        <ele>56.86</ele>
        <time>2014-11-24T15:03:29Z</time>
      </trkpt>
      <trkpt lat="43.80323" lon="4.29311">
        <ele>55.41</ele>
        <time>2014-11-24T15:03:49Z</time>
      </trkpt>
      <trkpt lat="43.80321" lon="4.29311">
        <ele>55.89</ele>
        <time>2014-11-24T15:04:09Z</time>
      </trkpt>
      <trkpt lat="43.8032" lon="4.29311">
        <ele>58.78</ele>
        <time>2014-11-24T15:04:36Z</time>
      </trkpt>
      <trkpt lat="43.8032" lon="4.29315">
        <ele>60.7</ele>
        <time>2014-11-24T15:05:03Z</time>
      </trkpt>
      <trkpt lat="43.80317" lon="4.29318">
        <ele>59.74</ele>
        <time>2014-11-24T15:05:21Z</time>
      </trkpt>
      <trkpt lat="43.80312" lon="4.29326">
        <ele>58.3</ele>
        <time>2014-11-24T15:05:35Z</time>
      </trkpt>
      <trkpt lat="43.80305" lon="4.29337">
        <ele>58.3</ele>
        <time>2014-11-24T15:05:49Z</time>
      </trkpt>
      <trkpt lat="43.80302" lon="4.29341">
        <ele>58.3</ele>
        <time>2014-11-24T15:05:53Z</time>
      </trkpt>
      <trkpt lat="43.803" lon="4.29343">
        <ele>58.3</ele>
        <time>2014-11-24T15:05:55Z</time>
      </trkpt>
      <trkpt lat="43.80287" lon="4.29358">
        <ele>57.34</ele>
        <time>2014-11-24T15:06:09Z</time>
      </trkpt>
      <trkpt lat="43.8028" lon="4.29366">
        <ele>57.82</ele>
        <time>2014-11-24T15:06:16Z</time>
      </trkpt>
      <trkpt lat="43.80269" lon="4.29379">
        <ele>56.37</ele>
        <time>2014-11-24T15:06:30Z</time>
      </trkpt>
      <trkpt lat="43.80267" lon="4.29381">
        <ele>56.37</ele>
        <time>2014-11-24T15:06:32Z</time>
      </trkpt>
      <trkpt lat="43.80255" lon="4.2939">
        <ele>55.89</ele>
        <time>2014-11-24T15:06:45Z</time>
      </trkpt>
      <trkpt lat="43.80243" lon="4.294">
        <ele>56.37</ele>
        <time>2014-11-24T15:06:58Z</time>
      </trkpt>
      <trkpt lat="43.8024" lon="4.29402">
        <ele>56.37</ele>
        <time>2014-11-24T15:07:01Z</time>
      </trkpt>
      <trkpt lat="43.80226" lon="4.29412">
        <ele>57.34</ele>
        <time>2014-11-24T15:07:13Z</time>
      </trkpt>
      <trkpt lat="43.80211" lon="4.29424">
        <ele>55.89</ele>
        <time>2014-11-24T15:07:27Z</time>
      </trkpt>
      <trkpt lat="43.80202" lon="4.29431">
        <ele>55.41</ele>
        <time>2014-11-24T15:07:36Z</time>
      </trkpt>
      <trkpt lat="43.80187" lon="4.29441">
        <ele>56.86</ele>
        <time>2014-11-24T15:07:49Z</time>
      </trkpt>
      <trkpt lat="43.80175" lon="4.29452">
        <ele>55.41</ele>
        <time>2014-11-24T15:08:02Z</time>
      </trkpt>
      <trkpt lat="43.80168" lon="4.29459">
        <ele>55.89</ele>
        <time>2014-11-24T15:08:16Z</time>
      </trkpt>
      <trkpt lat="43.80166" lon="4.29462">
        <ele>56.37</ele>
        <time>2014-11-24T15:08:22Z</time>
      </trkpt>
      <trkpt lat="43.80161" lon="4.2947">
        <ele>55.41</ele>
        <time>2014-11-24T15:08:36Z</time>
      </trkpt>
      <trkpt lat="43.80154" lon="4.29485">
        <ele>56.37</ele>
        <time>2014-11-24T15:08:49Z</time>
      </trkpt>
      <trkpt lat="43.80145" lon="4.29502">
        <ele>55.89</ele>
        <time>2014-11-24T15:09:02Z</time>
      </trkpt>
      <trkpt lat="43.80145" lon="4.29503">
        <ele>55.89</ele>
        <time>2014-11-24T15:09:03Z</time>
      </trkpt>
      <trkpt lat="43.80138" lon="4.29518">
        <ele>55.89</ele>
        <time>2014-11-24T15:09:14Z</time>
      </trkpt>
      <trkpt lat="43.80137" lon="4.29521">
        <ele>55.89</ele>
        <time>2014-11-24T15:09:16Z</time>
      </trkpt>
      <trkpt lat="43.8013" lon="4.29538">
        <ele>55.41</ele>
        <time>2014-11-24T15:09:30Z</time>
      </trkpt>
      <trkpt lat="43.80124" lon="4.29553">
        <ele>56.86</ele>
        <time>2014-11-24T15:09:42Z</time>
      </trkpt>
      <trkpt lat="43.80116" lon="4.29567">
        <ele>58.3</ele>
        <time>2014-11-24T15:09:54Z</time>
      </trkpt>
      <trkpt lat="43.80111" lon="4.29576">
        <ele>58.3</ele>
        <time>2014-11-24T15:10:03Z</time>
      </trkpt>
      <trkpt lat="43.80109" lon="4.2958">
        <ele>58.78</ele>
        <time>2014-11-24T15:10:06Z</time>
      </trkpt>
      <trkpt lat="43.80105" lon="4.29586">
        <ele>59.26</ele>
        <time>2014-11-24T15:10:11Z</time>
      </trkpt>
      <trkpt lat="43.80099" lon="4.29605">
        <ele>61.18</ele>
        <time>2014-11-24T15:10:25Z</time>
      </trkpt>
      <trkpt lat="43.80092" lon="4.29623">
        <ele>62.62</ele>
        <time>2014-11-24T15:10:39Z</time>
      </trkpt>
      <trkpt lat="43.80089" lon="4.29637">
        <ele>63.1</ele>
        <time>2014-11-24T15:10:52Z</time>
      </trkpt>
      <trkpt lat="43.80086" lon="4.29656">
        <ele>63.58</ele>
        <time>2014-11-24T15:11:05Z</time>
      </trkpt>
      <trkpt lat="43.80079" lon="4.29672">
        <ele>64.55</ele>
        <time>2014-11-24T15:11:17Z</time>
      </trkpt>
      <trkpt lat="43.80068" lon="4.29684">
        <ele>62.62</ele>
        <time>2014-11-24T15:11:29Z</time>
      </trkpt>
      <trkpt lat="43.80057" lon="4.29693">
        <ele>62.14</ele>
        <time>2014-11-24T15:11:41Z</time>
      </trkpt>
      <trkpt lat="43.80046" lon="4.29703">
        <ele>59.74</ele>
        <time>2014-11-24T15:11:53Z</time>
      </trkpt>
      <trkpt lat="43.80036" lon="4.29713">
        <ele>56.86</ele>
        <time>2014-11-24T15:12:06Z</time>
      </trkpt>
      <trkpt lat="43.8002" lon="4.29723">
        <ele>56.86</ele>
        <time>2014-11-24T15:12:20Z</time>
      </trkpt>
      <trkpt lat="43.80012" lon="4.2973">
        <ele>57.34</ele>
        <time>2014-11-24T15:12:25Z</time>
      </trkpt>
      <trkpt lat="43.79996" lon="4.29738">
        <ele>59.26</ele>
        <time>2014-11-24T15:12:39Z</time>
      </trkpt>
      <trkpt lat="43.79982" lon="4.2975">
        <ele>60.22</ele>
        <time>2014-11-24T15:12:52Z</time>
      </trkpt>
      <trkpt lat="43.79973" lon="4.29766">
        <ele>61.18</ele>
        <time>2014-11-24T15:13:05Z</time>
      </trkpt>
      <trkpt lat="43.79964" lon="4.29784">
        <ele>62.14</ele>
        <time>2014-11-24T15:13:19Z</time>
      </trkpt>
      <trkpt lat="43.79956" lon="4.29802">
        <ele>62.14</ele>
        <time>2014-11-24T15:13:32Z</time>
      </trkpt>
      <trkpt lat="43.79954" lon="4.29805">
        <ele>62.14</ele>
        <time>2014-11-24T15:13:35Z</time>
      </trkpt>
      <trkpt lat="43.79943" lon="4.29824">
        <ele>60.7</ele>
        <time>2014-11-24T15:13:49Z</time>
      </trkpt>
      <trkpt lat="43.79933" lon="4.29837">
        <ele>59.74</ele>
        <time>2014-11-24T15:14:00Z</time>
      </trkpt>
      <trkpt lat="43.79924" lon="4.29851">
        <ele>57.82</ele>
        <time>2014-11-24T15:14:12Z</time>
      </trkpt>
      <trkpt lat="43.79923" lon="4.29852">
        <ele>58.3</ele>
        <time>2014-11-24T15:14:13Z</time>
      </trkpt>
      <trkpt lat="43.79912" lon="4.29868">
        <ele>56.86</ele>
        <time>2014-11-24T15:14:27Z</time>
      </trkpt>
      <trkpt lat="43.799" lon="4.2988">
        <ele>56.37</ele>
        <time>2014-11-24T15:14:39Z</time>
      </trkpt>
      <trkpt lat="43.79892" lon="4.29889">
        <ele>54.93</ele>
        <time>2014-11-24T15:14:48Z</time>
      </trkpt>
      <trkpt lat="43.79879" lon="4.29901">
        <ele>53.49</ele>
        <time>2014-11-24T15:15:01Z</time>
      </trkpt>
      <trkpt lat="43.79866" lon="4.29913">
        <ele>53.01</ele>
        <time>2014-11-24T15:15:14Z</time>
      </trkpt>
      <trkpt lat="43.79853" lon="4.29923">
        <ele>53.01</ele>
        <time>2014-11-24T15:15:26Z</time>
      </trkpt>
      <trkpt lat="43.79845" lon="4.29931">
        <ele>53.01</ele>
        <time>2014-11-24T15:15:34Z</time>
      </trkpt>
      <trkpt lat="43.79832" lon="4.29944">
        <ele>52.53</ele>
        <time>2014-11-24T15:15:48Z</time>
      </trkpt>
      <trkpt lat="43.79817" lon="4.29956">
        <ele>53.97</ele>
        <time>2014-11-24T15:16:00Z</time>
      </trkpt>
      <trkpt lat="43.79807" lon="4.29966">
        <ele>54.45</ele>
        <time>2014-11-24T15:16:11Z</time>
      </trkpt>
      <trkpt lat="43.79791" lon="4.29977">
        <ele>52.53</ele>
        <time>2014-11-24T15:16:26Z</time>
      </trkpt>
      <trkpt lat="43.79785" lon="4.29982">
        <ele>49.16</ele>
        <time>2014-11-24T15:16:33Z</time>
      </trkpt>
      <trkpt lat="43.79772" lon="4.29995">
        <ele>46.76</ele>
        <time>2014-11-24T15:16:46Z</time>
      </trkpt>
      <trkpt lat="43.7977" lon="4.29997">
        <ele>46.28</ele>
        <time>2014-11-24T15:16:48Z</time>
      </trkpt>
      <trkpt lat="43.79757" lon="4.30009">
        <ele>47.72</ele>
        <time>2014-11-24T15:17:00Z</time>
      </trkpt>
      <trkpt lat="43.79742" lon="4.30018">
        <ele>51.09</ele>
        <time>2014-11-24T15:17:12Z</time>
      </trkpt>
      <trkpt lat="43.7973" lon="4.30026">
        <ele>51.57</ele>
        <time>2014-11-24T15:17:23Z</time>
      </trkpt>
      <trkpt lat="43.79725" lon="4.30029">
        <ele>51.57</ele>
        <time>2014-11-24T15:17:28Z</time>
      </trkpt>
      <trkpt lat="43.79711" lon="4.30035">
        <ele>49.65</ele>
        <time>2014-11-24T15:17:41Z</time>
      </trkpt>
      <trkpt lat="43.7971" lon="4.30036">
        <ele>49.65</ele>
        <time>2014-11-24T15:17:42Z</time>
      </trkpt>
      <trkpt lat="43.79705" lon="4.30039">
        <ele>49.65</ele>
        <time>2014-11-24T15:17:47Z</time>
      </trkpt>
      <trkpt lat="43.79702" lon="4.3004">
        <ele>49.65</ele>
        <time>2014-11-24T15:17:49Z</time>
      </trkpt>
      <trkpt lat="43.79688" lon="4.30049">
        <ele>49.16</ele>
        <time>2014-11-24T15:18:02Z</time>
      </trkpt>
      <trkpt lat="43.79673" lon="4.30057">
        <ele>49.16</ele>
        <time>2014-11-24T15:18:16Z</time>
      </trkpt>
      <trkpt lat="43.79664" lon="4.30062">
        <ele>49.16</ele>
        <time>2014-11-24T15:18:24Z</time>
      </trkpt>
      <trkpt lat="43.7966" lon="4.30066">
        <ele>48.68</ele>
        <time>2014-11-24T15:18:29Z</time>
      </trkpt>
      <trkpt lat="43.79644" lon="4.30071">
        <ele>45.8</ele>
        <time>2014-11-24T15:18:44Z</time>
      </trkpt>
      <trkpt lat="43.79628" lon="4.30071">
        <ele>46.76</ele>
        <time>2014-11-24T15:18:57Z</time>
      </trkpt>
      <trkpt lat="43.79615" lon="4.30079">
        <ele>46.76</ele>
        <time>2014-11-24T15:19:10Z</time>
      </trkpt>
      <trkpt lat="43.79607" lon="4.3009">
        <ele>44.36</ele>
        <time>2014-11-24T15:19:21Z</time>
      </trkpt>
      <trkpt lat="43.79601" lon="4.30101">
        <ele>43.4</ele>
        <time>2014-11-24T15:19:30Z</time>
      </trkpt>
      <trkpt lat="43.79596" lon="4.3011">
        <ele>44.84</ele>
        <time>2014-11-24T15:19:37Z</time>
      </trkpt>
      <trkpt lat="43.79585" lon="4.30127">
        <ele>45.32</ele>
        <time>2014-11-24T15:19:50Z</time>
      </trkpt>
      <trkpt lat="43.79575" lon="4.30142">
        <ele>45.32</ele>
        <time>2014-11-24T15:20:02Z</time>
      </trkpt>
      <trkpt lat="43.79571" lon="4.30148">
        <ele>45.8</ele>
        <time>2014-11-24T15:20:07Z</time>
      </trkpt>
      <trkpt lat="43.79565" lon="4.30157">
        <ele>46.28</ele>
        <time>2014-11-24T15:20:14Z</time>
      </trkpt>
      <trkpt lat="43.79562" lon="4.30164">
        <ele>46.28</ele>
        <time>2014-11-24T15:20:19Z</time>
      </trkpt>
      <trkpt lat="43.7955" lon="4.3018">
        <ele>46.28</ele>
        <time>2014-11-24T15:20:32Z</time>
      </trkpt>
      <trkpt lat="43.7954" lon="4.30193">
        <ele>45.8</ele>
        <time>2014-11-24T15:20:44Z</time>
      </trkpt>
      <trkpt lat="43.79532" lon="4.30207">
        <ele>44.36</ele>
        <time>2014-11-24T15:20:56Z</time>
      </trkpt>
      <trkpt lat="43.79521" lon="4.30223">
        <ele>40.51</ele>
        <time>2014-11-24T15:21:10Z</time>
      </trkpt>
      <trkpt lat="43.7951" lon="4.30236">
        <ele>37.15</ele>
        <time>2014-11-24T15:21:22Z</time>
      </trkpt>
      <trkpt lat="43.79502" lon="4.30248">
        <ele>33.78</ele>
        <time>2014-11-24T15:21:33Z</time>
      </trkpt>
      <trkpt lat="43.79497" lon="4.30255">
        <ele>31.38</ele>
        <time>2014-11-24T15:21:40Z</time>
      </trkpt>
      <trkpt lat="43.79487" lon="4.30269">
        <ele>25.61</ele>
        <time>2014-11-24T15:21:54Z</time>
      </trkpt>
      <trkpt lat="43.79486" lon="4.30272">
        <ele>25.13</ele>
        <time>2014-11-24T15:21:56Z</time>
      </trkpt>
      <trkpt lat="43.79479" lon="4.30278">
        <ele>26.57</ele>
        <time>2014-11-24T15:22:02Z</time>
      </trkpt>
      <trkpt lat="43.79469" lon="4.3029">
        <ele>28.5</ele>
        <time>2014-11-24T15:22:12Z</time>
      </trkpt>
      <trkpt lat="43.79459" lon="4.3031">
        <ele>30.9</ele>
        <time>2014-11-24T15:22:24Z</time>
      </trkpt>
      <trkpt lat="43.7945" lon="4.30331">
        <ele>34.26</ele>
        <time>2014-11-24T15:22:37Z</time>
      </trkpt>
      <trkpt lat="43.79446" lon="4.30342">
        <ele>35.23</ele>
        <time>2014-11-24T15:22:44Z</time>
      </trkpt>
      <trkpt lat="43.79439" lon="4.3036">
        <ele>34.74</ele>
        <time>2014-11-24T15:22:56Z</time>
      </trkpt>
      <trkpt lat="43.79437" lon="4.30363">
        <ele>34.74</ele>
        <time>2014-11-24T15:22:59Z</time>
      </trkpt>
      <trkpt lat="43.79432" lon="4.30368">
        <ele>35.23</ele>
        <time>2014-11-24T15:23:04Z</time>
      </trkpt>
      <trkpt lat="43.79429" lon="4.30373">
        <ele>35.23</ele>
        <time>2014-11-24T15:23:08Z</time>
      </trkpt>
      <trkpt lat="43.7942" lon="4.30391">
        <ele>34.26</ele>
        <time>2014-11-24T15:23:22Z</time>
      </trkpt>
      <trkpt lat="43.79406" lon="4.30405">
        <ele>30.9</ele>
        <time>2014-11-24T15:23:36Z</time>
      </trkpt>
      <trkpt lat="43.79392" lon="4.30417">
        <ele>29.94</ele>
        <time>2014-11-24T15:23:49Z</time>
      </trkpt>
      <trkpt lat="43.79382" lon="4.3043">
        <ele>33.3</ele>
        <time>2014-11-24T15:24:01Z</time>
      </trkpt>
      <trkpt lat="43.79376" lon="4.30436">
        <ele>33.78</ele>
        <time>2014-11-24T15:24:12Z</time>
      </trkpt>
      <trkpt lat="43.79375" lon="4.30437">
        <ele>34.26</ele>
        <time>2014-11-24T15:24:16Z</time>
      </trkpt>
      <trkpt lat="43.79333" lon="4.30461">
        <ele>31.86</ele>
        <time>2014-11-24T15:24:54Z</time>
      </trkpt>
      <trkpt lat="43.79321" lon="4.30473">
        <ele>34.26</ele>
        <time>2014-11-24T15:25:06Z</time>
      </trkpt>
      <trkpt lat="43.79309" lon="4.30482">
        <ele>34.26</ele>
        <time>2014-11-24T15:25:17Z</time>
      </trkpt>
      <trkpt lat="43.79296" lon="4.30495">
        <ele>32.82</ele>
        <time>2014-11-24T15:25:33Z</time>
      </trkpt>
      <trkpt lat="43.79292" lon="4.30498">
        <ele>32.82</ele>
        <time>2014-11-24T15:25:37Z</time>
      </trkpt>
      <trkpt lat="43.79274" lon="4.30507">
        <ele>35.23</ele>
        <time>2014-11-24T15:25:55Z</time>
      </trkpt>
      <trkpt lat="43.79266" lon="4.30515">
        <ele>33.78</ele>
        <time>2014-11-24T15:26:08Z</time>
      </trkpt>
      <trkpt lat="43.7926" lon="4.3052">
        <ele>33.78</ele>
        <time>2014-11-24T15:26:15Z</time>
      </trkpt>
      <trkpt lat="43.79249" lon="4.30535">
        <ele>32.34</ele>
        <time>2014-11-24T15:26:29Z</time>
      </trkpt>
      <trkpt lat="43.79251" lon="4.30544">
        <ele>31.86</ele>
        <time>2014-11-24T15:26:41Z</time>
      </trkpt>
      <trkpt lat="43.79254" lon="4.30545">
        <ele>33.3</ele>
        <time>2014-11-24T15:26:44Z</time>
      </trkpt>
      <trkpt lat="43.79261" lon="4.30553">
        <ele>34.26</ele>
        <time>2014-11-24T15:26:59Z</time>
      </trkpt>
      <trkpt lat="43.79261" lon="4.30556">
        <ele>34.26</ele>
        <time>2014-11-24T15:27:21Z</time>
      </trkpt>
      <trkpt lat="43.7926" lon="4.30556">
        <ele>33.3</ele>
        <time>2014-11-24T15:27:38Z</time>
      </trkpt>
      <trkpt lat="43.79259" lon="4.30556">
        <ele>34.26</ele>
        <time>2014-11-24T15:27:58Z</time>
      </trkpt>
      <trkpt lat="43.79261" lon="4.30556">
        <ele>32.82</ele>
        <time>2014-11-24T15:28:26Z</time>
      </trkpt>
      <trkpt lat="43.7926" lon="4.30549">
        <ele>32.82</ele>
        <time>2014-11-24T15:29:01Z</time>
      </trkpt>
    </trkseg>
  </trk>
</gpx>